<?xml version="1.0" encoding="UTF-8" standalone="no" ?>
<gpx xmlns="http://www.topografix.com/GPX/1/1" xmlns:xsi="http://www.w3.org/2001/XMLSchema-instance" xsi:schemaLocation="http://www.topografix.com/GPX/1/1 http://www.topografix.com/GPX/1/1/gpx.xsd" version="1.1" creator="VisuGPX - https://www.visugpx.com">
  <metadata>
    <name>Around the block </name>
    <desc><![CDATA[Échauffement ]]></desc>
  </metadata>
  <trk>
    <name><![CDATA[Tracé 20200612-192714]]></name>
    <trkseg>
      <trkpt lat="50.46495" lon="1.57756">
        <ele>11.361</ele>
        <time>2020-06-12T17:27:14Z</time>
      </trkpt>
      <trkpt lat="50.46495" lon="1.57756">
        <ele>11.754</ele>
        <time>2020-06-12T17:30:32Z</time>
      </trkpt>
      <trkpt lat="50.46487" lon="1.57766">
        <ele>11.974</ele>
        <time>2020-06-12T17:30:35Z</time>
      </trkpt>
      <trkpt lat="50.46479" lon="1.57772">
        <ele>11.899</ele>
        <time>2020-06-12T17:30:38Z</time>
      </trkpt>
      <trkpt lat="50.46468" lon="1.57781">
        <ele>12.314</ele>
        <time>2020-06-12T17:30:41Z</time>
      </trkpt>
      <trkpt lat="50.46456" lon="1.5779">
        <ele>12.49</ele>
        <time>2020-06-12T17:30:44Z</time>
      </trkpt>
      <trkpt lat="50.46441" lon="1.578">
        <ele>12.12</ele>
        <time>2020-06-12T17:30:47Z</time>
      </trkpt>
      <trkpt lat="50.46426" lon="1.5781">
        <ele>11.355</ele>
        <time>2020-06-12T17:30:50Z</time>
      </trkpt>
      <trkpt lat="50.4641" lon="1.57821">
        <ele>11.436</ele>
        <time>2020-06-12T17:30:53Z</time>
      </trkpt>
      <trkpt lat="50.46394" lon="1.57832">
        <ele>11.321</ele>
        <time>2020-06-12T17:30:56Z</time>
      </trkpt>
      <trkpt lat="50.46376" lon="1.57843">
        <ele>10.807</ele>
        <time>2020-06-12T17:30:59Z</time>
      </trkpt>
      <trkpt lat="50.46359" lon="1.57855">
        <ele>10.253</ele>
        <time>2020-06-12T17:31:02Z</time>
      </trkpt>
      <trkpt lat="50.46341" lon="1.57868">
        <ele>9.583</ele>
        <time>2020-06-12T17:31:05Z</time>
      </trkpt>
      <trkpt lat="50.46323" lon="1.57878">
        <ele>9.466</ele>
        <time>2020-06-12T17:31:08Z</time>
      </trkpt>
      <trkpt lat="50.46307" lon="1.57887">
        <ele>9.123</ele>
        <time>2020-06-12T17:31:11Z</time>
      </trkpt>
      <trkpt lat="50.463" lon="1.57911">
        <ele>9.204</ele>
        <time>2020-06-12T17:31:14Z</time>
      </trkpt>
      <trkpt lat="50.46298" lon="1.5794">
        <ele>9.411</ele>
        <time>2020-06-12T17:31:17Z</time>
      </trkpt>
      <trkpt lat="50.46295" lon="1.57968">
        <ele>9.007</ele>
        <time>2020-06-12T17:31:20Z</time>
      </trkpt>
      <trkpt lat="50.46291" lon="1.57995">
        <ele>8.654</ele>
        <time>2020-06-12T17:31:23Z</time>
      </trkpt>
      <trkpt lat="50.46288" lon="1.58023">
        <ele>8.916</ele>
        <time>2020-06-12T17:31:26Z</time>
      </trkpt>
      <trkpt lat="50.46283" lon="1.58049">
        <ele>9.622</ele>
        <time>2020-06-12T17:31:29Z</time>
      </trkpt>
      <trkpt lat="50.46279" lon="1.58075">
        <ele>10.365</ele>
        <time>2020-06-12T17:31:32Z</time>
      </trkpt>
      <trkpt lat="50.46274" lon="1.58103">
        <ele>10.019</ele>
        <time>2020-06-12T17:31:35Z</time>
      </trkpt>
      <trkpt lat="50.4627" lon="1.58132">
        <ele>9.791</ele>
        <time>2020-06-12T17:31:38Z</time>
      </trkpt>
      <trkpt lat="50.46267" lon="1.58162">
        <ele>9.43</ele>
        <time>2020-06-12T17:31:41Z</time>
      </trkpt>
      <trkpt lat="50.46262" lon="1.58191">
        <ele>9.266</ele>
        <time>2020-06-12T17:31:44Z</time>
      </trkpt>
      <trkpt lat="50.46259" lon="1.58219">
        <ele>9.548</ele>
        <time>2020-06-12T17:31:47Z</time>
      </trkpt>
      <trkpt lat="50.46255" lon="1.58245">
        <ele>9.603</ele>
        <time>2020-06-12T17:31:50Z</time>
      </trkpt>
      <trkpt lat="50.46251" lon="1.58272">
        <ele>9.584</ele>
        <time>2020-06-12T17:31:53Z</time>
      </trkpt>
      <trkpt lat="50.46247" lon="1.58299">
        <ele>9.55</ele>
        <time>2020-06-12T17:31:56Z</time>
      </trkpt>
      <trkpt lat="50.46244" lon="1.58327">
        <ele>9.238</ele>
        <time>2020-06-12T17:31:59Z</time>
      </trkpt>
      <trkpt lat="50.46242" lon="1.58355">
        <ele>8.59</ele>
        <time>2020-06-12T17:32:02Z</time>
      </trkpt>
      <trkpt lat="50.46239" lon="1.5838">
        <ele>7.883</ele>
        <time>2020-06-12T17:32:05Z</time>
      </trkpt>
      <trkpt lat="50.46236" lon="1.58402">
        <ele>7.565</ele>
        <time>2020-06-12T17:32:08Z</time>
      </trkpt>
      <trkpt lat="50.46241" lon="1.58424">
        <ele>7.475</ele>
        <time>2020-06-12T17:32:11Z</time>
      </trkpt>
      <trkpt lat="50.4625" lon="1.58447">
        <ele>7.051</ele>
        <time>2020-06-12T17:32:14Z</time>
      </trkpt>
      <trkpt lat="50.46259" lon="1.58472">
        <ele>6.698</ele>
        <time>2020-06-12T17:32:17Z</time>
      </trkpt>
      <trkpt lat="50.46267" lon="1.58498">
        <ele>6.862</ele>
        <time>2020-06-12T17:32:20Z</time>
      </trkpt>
      <trkpt lat="50.46276" lon="1.58523">
        <ele>7.206</ele>
        <time>2020-06-12T17:32:23Z</time>
      </trkpt>
      <trkpt lat="50.46284" lon="1.58548">
        <ele>7.282</ele>
        <time>2020-06-12T17:32:26Z</time>
      </trkpt>
      <trkpt lat="50.46291" lon="1.58573">
        <ele>7.451</ele>
        <time>2020-06-12T17:32:29Z</time>
      </trkpt>
      <trkpt lat="50.46299" lon="1.58597">
        <ele>7.387</ele>
        <time>2020-06-12T17:32:32Z</time>
      </trkpt>
      <trkpt lat="50.46306" lon="1.5862">
        <ele>7.929</ele>
        <time>2020-06-12T17:32:35Z</time>
      </trkpt>
      <trkpt lat="50.46312" lon="1.58638">
        <ele>7.469</ele>
        <time>2020-06-12T17:32:38Z</time>
      </trkpt>
      <trkpt lat="50.46323" lon="1.58648">
        <ele>7.104</ele>
        <time>2020-06-12T17:32:41Z</time>
      </trkpt>
      <trkpt lat="50.4634" lon="1.58653">
        <ele>7.161</ele>
        <time>2020-06-12T17:32:44Z</time>
      </trkpt>
      <trkpt lat="50.46358" lon="1.58658">
        <ele>7.031</ele>
        <time>2020-06-12T17:32:47Z</time>
      </trkpt>
      <trkpt lat="50.46377" lon="1.58665">
        <ele>7.304</ele>
        <time>2020-06-12T17:32:50Z</time>
      </trkpt>
      <trkpt lat="50.46396" lon="1.58673">
        <ele>7.773</ele>
        <time>2020-06-12T17:32:53Z</time>
      </trkpt>
      <trkpt lat="50.46416" lon="1.58681">
        <ele>7.743</ele>
        <time>2020-06-12T17:32:56Z</time>
      </trkpt>
      <trkpt lat="50.46436" lon="1.58688">
        <ele>7.893</ele>
        <time>2020-06-12T17:32:59Z</time>
      </trkpt>
      <trkpt lat="50.46455" lon="1.58698">
        <ele>8.056</ele>
        <time>2020-06-12T17:33:02Z</time>
      </trkpt>
      <trkpt lat="50.46474" lon="1.58707">
        <ele>8.263</ele>
        <time>2020-06-12T17:33:05Z</time>
      </trkpt>
      <trkpt lat="50.46493" lon="1.58717">
        <ele>8.001</ele>
        <time>2020-06-12T17:33:08Z</time>
      </trkpt>
      <trkpt lat="50.46514" lon="1.5873">
        <ele>7.762</ele>
        <time>2020-06-12T17:33:11Z</time>
      </trkpt>
      <trkpt lat="50.46534" lon="1.58742">
        <ele>7.748</ele>
        <time>2020-06-12T17:33:14Z</time>
      </trkpt>
      <trkpt lat="50.46553" lon="1.58753">
        <ele>8.077</ele>
        <time>2020-06-12T17:33:17Z</time>
      </trkpt>
      <trkpt lat="50.46571" lon="1.58765">
        <ele>8.218</ele>
        <time>2020-06-12T17:33:20Z</time>
      </trkpt>
      <trkpt lat="50.46589" lon="1.58774">
        <ele>8.865</ele>
        <time>2020-06-12T17:33:23Z</time>
      </trkpt>
      <trkpt lat="50.46609" lon="1.58787">
        <ele>9.031</ele>
        <time>2020-06-12T17:33:26Z</time>
      </trkpt>
      <trkpt lat="50.46628" lon="1.588">
        <ele>9.131</ele>
        <time>2020-06-12T17:33:29Z</time>
      </trkpt>
      <trkpt lat="50.46646" lon="1.5881">
        <ele>9.707</ele>
        <time>2020-06-12T17:33:32Z</time>
      </trkpt>
      <trkpt lat="50.46666" lon="1.58821">
        <ele>10.621</ele>
        <time>2020-06-12T17:33:35Z</time>
      </trkpt>
      <trkpt lat="50.46684" lon="1.58831">
        <ele>11.318</ele>
        <time>2020-06-12T17:33:38Z</time>
      </trkpt>
      <trkpt lat="50.46702" lon="1.5884">
        <ele>12.239</ele>
        <time>2020-06-12T17:33:41Z</time>
      </trkpt>
      <trkpt lat="50.46722" lon="1.5885">
        <ele>12.788</ele>
        <time>2020-06-12T17:33:44Z</time>
      </trkpt>
      <trkpt lat="50.46741" lon="1.5886">
        <ele>13.145</ele>
        <time>2020-06-12T17:33:47Z</time>
      </trkpt>
      <trkpt lat="50.46758" lon="1.5887">
        <ele>13.499</ele>
        <time>2020-06-12T17:33:50Z</time>
      </trkpt>
      <trkpt lat="50.46777" lon="1.5888">
        <ele>13.66</ele>
        <time>2020-06-12T17:33:53Z</time>
      </trkpt>
      <trkpt lat="50.46796" lon="1.58891">
        <ele>13.51</ele>
        <time>2020-06-12T17:33:56Z</time>
      </trkpt>
      <trkpt lat="50.46815" lon="1.58902">
        <ele>13.629</ele>
        <time>2020-06-12T17:33:59Z</time>
      </trkpt>
      <trkpt lat="50.46835" lon="1.58913">
        <ele>13.571</ele>
        <time>2020-06-12T17:34:02Z</time>
      </trkpt>
      <trkpt lat="50.46854" lon="1.58923">
        <ele>13.507</ele>
        <time>2020-06-12T17:34:05Z</time>
      </trkpt>
      <trkpt lat="50.46872" lon="1.58933">
        <ele>13.362</ele>
        <time>2020-06-12T17:34:08Z</time>
      </trkpt>
      <trkpt lat="50.4689" lon="1.58943">
        <ele>13.632</ele>
        <time>2020-06-12T17:34:11Z</time>
      </trkpt>
      <trkpt lat="50.46906" lon="1.58956">
        <ele>13.634</ele>
        <time>2020-06-12T17:34:14Z</time>
      </trkpt>
      <trkpt lat="50.46922" lon="1.58974">
        <ele>14.21</ele>
        <time>2020-06-12T17:34:17Z</time>
      </trkpt>
      <trkpt lat="50.46932" lon="1.58999">
        <ele>13.814</ele>
        <time>2020-06-12T17:34:20Z</time>
      </trkpt>
      <trkpt lat="50.46942" lon="1.59025">
        <ele>13.251</ele>
        <time>2020-06-12T17:34:23Z</time>
      </trkpt>
      <trkpt lat="50.46954" lon="1.5905">
        <ele>12.938</ele>
        <time>2020-06-12T17:34:26Z</time>
      </trkpt>
      <trkpt lat="50.46964" lon="1.59074">
        <ele>13.006</ele>
        <time>2020-06-12T17:34:29Z</time>
      </trkpt>
      <trkpt lat="50.46973" lon="1.59099">
        <ele>12.985</ele>
        <time>2020-06-12T17:34:32Z</time>
      </trkpt>
      <trkpt lat="50.46984" lon="1.59125">
        <ele>13.037</ele>
        <time>2020-06-12T17:34:35Z</time>
      </trkpt>
      <trkpt lat="50.46993" lon="1.59149">
        <ele>12.947</ele>
        <time>2020-06-12T17:34:38Z</time>
      </trkpt>
      <trkpt lat="50.47003" lon="1.59172">
        <ele>12.905</ele>
        <time>2020-06-12T17:34:41Z</time>
      </trkpt>
      <trkpt lat="50.47015" lon="1.59198">
        <ele>12.784</ele>
        <time>2020-06-12T17:34:44Z</time>
      </trkpt>
      <trkpt lat="50.47027" lon="1.59222">
        <ele>12.996</ele>
        <time>2020-06-12T17:34:47Z</time>
      </trkpt>
      <trkpt lat="50.47038" lon="1.59247">
        <ele>13.212</ele>
        <time>2020-06-12T17:34:50Z</time>
      </trkpt>
      <trkpt lat="50.47048" lon="1.59272">
        <ele>13.064</ele>
        <time>2020-06-12T17:34:53Z</time>
      </trkpt>
      <trkpt lat="50.4706" lon="1.59297">
        <ele>13.616</ele>
        <time>2020-06-12T17:34:56Z</time>
      </trkpt>
      <trkpt lat="50.47071" lon="1.59321">
        <ele>13.783</ele>
        <time>2020-06-12T17:34:59Z</time>
      </trkpt>
      <trkpt lat="50.47081" lon="1.59345">
        <ele>13.956</ele>
        <time>2020-06-12T17:35:02Z</time>
      </trkpt>
      <trkpt lat="50.47091" lon="1.59371">
        <ele>14.077</ele>
        <time>2020-06-12T17:35:05Z</time>
      </trkpt>
      <trkpt lat="50.47101" lon="1.59396">
        <ele>13.745</ele>
        <time>2020-06-12T17:35:08Z</time>
      </trkpt>
      <trkpt lat="50.47112" lon="1.59422">
        <ele>13.506</ele>
        <time>2020-06-12T17:35:11Z</time>
      </trkpt>
      <trkpt lat="50.47121" lon="1.59445">
        <ele>12.744</ele>
        <time>2020-06-12T17:35:14Z</time>
      </trkpt>
      <trkpt lat="50.4713" lon="1.59469">
        <ele>11.77</ele>
        <time>2020-06-12T17:35:17Z</time>
      </trkpt>
      <trkpt lat="50.47139" lon="1.59492">
        <ele>10.927</ele>
        <time>2020-06-12T17:35:20Z</time>
      </trkpt>
      <trkpt lat="50.47151" lon="1.59516">
        <ele>10.484</ele>
        <time>2020-06-12T17:35:23Z</time>
      </trkpt>
      <trkpt lat="50.47162" lon="1.59543">
        <ele>10.224</ele>
        <time>2020-06-12T17:35:26Z</time>
      </trkpt>
      <trkpt lat="50.47173" lon="1.59567">
        <ele>9.68</ele>
        <time>2020-06-12T17:35:29Z</time>
      </trkpt>
      <trkpt lat="50.47182" lon="1.59591">
        <ele>9.556</ele>
        <time>2020-06-12T17:35:32Z</time>
      </trkpt>
      <trkpt lat="50.47193" lon="1.59615">
        <ele>9.365</ele>
        <time>2020-06-12T17:35:35Z</time>
      </trkpt>
      <trkpt lat="50.47204" lon="1.59642">
        <ele>9.042</ele>
        <time>2020-06-12T17:35:38Z</time>
      </trkpt>
      <trkpt lat="50.47214" lon="1.59666">
        <ele>8.635</ele>
        <time>2020-06-12T17:35:41Z</time>
      </trkpt>
      <trkpt lat="50.47224" lon="1.5969">
        <ele>8.172</ele>
        <time>2020-06-12T17:35:44Z</time>
      </trkpt>
      <trkpt lat="50.47234" lon="1.59715">
        <ele>7.845</ele>
        <time>2020-06-12T17:35:47Z</time>
      </trkpt>
      <trkpt lat="50.47245" lon="1.59742">
        <ele>7.625</ele>
        <time>2020-06-12T17:35:50Z</time>
      </trkpt>
      <trkpt lat="50.47255" lon="1.59771">
        <ele>7.699</ele>
        <time>2020-06-12T17:35:53Z</time>
      </trkpt>
      <trkpt lat="50.47257" lon="1.59803">
        <ele>8.094</ele>
        <time>2020-06-12T17:35:56Z</time>
      </trkpt>
      <trkpt lat="50.47258" lon="1.59834">
        <ele>8.105</ele>
        <time>2020-06-12T17:35:59Z</time>
      </trkpt>
      <trkpt lat="50.47259" lon="1.59863">
        <ele>7.261</ele>
        <time>2020-06-12T17:36:02Z</time>
      </trkpt>
      <trkpt lat="50.4726" lon="1.5989">
        <ele>6.79</ele>
        <time>2020-06-12T17:36:05Z</time>
      </trkpt>
      <trkpt lat="50.47262" lon="1.59918">
        <ele>6.296</ele>
        <time>2020-06-12T17:36:08Z</time>
      </trkpt>
      <trkpt lat="50.47263" lon="1.59946">
        <ele>5.436</ele>
        <time>2020-06-12T17:36:11Z</time>
      </trkpt>
      <trkpt lat="50.47265" lon="1.59972">
        <ele>4.749</ele>
        <time>2020-06-12T17:36:14Z</time>
      </trkpt>
      <trkpt lat="50.47273" lon="1.59995">
        <ele>4.699</ele>
        <time>2020-06-12T17:36:17Z</time>
      </trkpt>
      <trkpt lat="50.47291" lon="1.60002">
        <ele>5.124</ele>
        <time>2020-06-12T17:36:20Z</time>
      </trkpt>
      <trkpt lat="50.47308" lon="1.60005">
        <ele>5.197</ele>
        <time>2020-06-12T17:36:23Z</time>
      </trkpt>
      <trkpt lat="50.47324" lon="1.60008">
        <ele>5.672</ele>
        <time>2020-06-12T17:36:26Z</time>
      </trkpt>
      <trkpt lat="50.47341" lon="1.60012">
        <ele>6.339</ele>
        <time>2020-06-12T17:36:29Z</time>
      </trkpt>
      <trkpt lat="50.47359" lon="1.60016">
        <ele>6.714</ele>
        <time>2020-06-12T17:36:32Z</time>
      </trkpt>
      <trkpt lat="50.47375" lon="1.60021">
        <ele>7.293</ele>
        <time>2020-06-12T17:36:35Z</time>
      </trkpt>
      <trkpt lat="50.47389" lon="1.60024">
        <ele>7.613</ele>
        <time>2020-06-12T17:36:38Z</time>
      </trkpt>
      <trkpt lat="50.47406" lon="1.60028">
        <ele>7.395</ele>
        <time>2020-06-12T17:36:41Z</time>
      </trkpt>
      <trkpt lat="50.47424" lon="1.60031">
        <ele>7.378</ele>
        <time>2020-06-12T17:36:44Z</time>
      </trkpt>
      <trkpt lat="50.47439" lon="1.60036">
        <ele>6.997</ele>
        <time>2020-06-12T17:36:47Z</time>
      </trkpt>
      <trkpt lat="50.47455" lon="1.60038">
        <ele>6.686</ele>
        <time>2020-06-12T17:36:50Z</time>
      </trkpt>
      <trkpt lat="50.47472" lon="1.60042">
        <ele>6.226</ele>
        <time>2020-06-12T17:36:53Z</time>
      </trkpt>
      <trkpt lat="50.4749" lon="1.60046">
        <ele>7.131</ele>
        <time>2020-06-12T17:36:56Z</time>
      </trkpt>
      <trkpt lat="50.47507" lon="1.60051">
        <ele>7.678</ele>
        <time>2020-06-12T17:36:59Z</time>
      </trkpt>
      <trkpt lat="50.47524" lon="1.60057">
        <ele>8.446</ele>
        <time>2020-06-12T17:37:02Z</time>
      </trkpt>
      <trkpt lat="50.47541" lon="1.60062">
        <ele>9.419</ele>
        <time>2020-06-12T17:37:05Z</time>
      </trkpt>
      <trkpt lat="50.4756" lon="1.60066">
        <ele>10.459</ele>
        <time>2020-06-12T17:37:08Z</time>
      </trkpt>
      <trkpt lat="50.47578" lon="1.6007">
        <ele>11.325</ele>
        <time>2020-06-12T17:37:11Z</time>
      </trkpt>
      <trkpt lat="50.47595" lon="1.60073">
        <ele>12.657</ele>
        <time>2020-06-12T17:37:14Z</time>
      </trkpt>
      <trkpt lat="50.47612" lon="1.60077">
        <ele>14.037</ele>
        <time>2020-06-12T17:37:17Z</time>
      </trkpt>
      <trkpt lat="50.47625" lon="1.60093">
        <ele>15.461</ele>
        <time>2020-06-12T17:37:20Z</time>
      </trkpt>
      <trkpt lat="50.47622" lon="1.6012">
        <ele>16.462</ele>
        <time>2020-06-12T17:37:23Z</time>
      </trkpt>
      <trkpt lat="50.47618" lon="1.60146">
        <ele>17.04</ele>
        <time>2020-06-12T17:37:26Z</time>
      </trkpt>
      <trkpt lat="50.47616" lon="1.60173">
        <ele>16.174</ele>
        <time>2020-06-12T17:37:29Z</time>
      </trkpt>
      <trkpt lat="50.47614" lon="1.602">
        <ele>15.492</ele>
        <time>2020-06-12T17:37:32Z</time>
      </trkpt>
      <trkpt lat="50.4761" lon="1.60228">
        <ele>15.179</ele>
        <time>2020-06-12T17:37:35Z</time>
      </trkpt>
      <trkpt lat="50.47606" lon="1.60255">
        <ele>14.817</ele>
        <time>2020-06-12T17:37:38Z</time>
      </trkpt>
      <trkpt lat="50.47603" lon="1.60282">
        <ele>14.06</ele>
        <time>2020-06-12T17:37:41Z</time>
      </trkpt>
      <trkpt lat="50.476" lon="1.60308">
        <ele>13.974</ele>
        <time>2020-06-12T17:37:44Z</time>
      </trkpt>
      <trkpt lat="50.47598" lon="1.60335">
        <ele>13.44</ele>
        <time>2020-06-12T17:37:47Z</time>
      </trkpt>
      <trkpt lat="50.47595" lon="1.60364">
        <ele>13.224</ele>
        <time>2020-06-12T17:37:50Z</time>
      </trkpt>
      <trkpt lat="50.47591" lon="1.60391">
        <ele>13.483</ele>
        <time>2020-06-12T17:37:53Z</time>
      </trkpt>
      <trkpt lat="50.47589" lon="1.60417">
        <ele>13.585</ele>
        <time>2020-06-12T17:37:56Z</time>
      </trkpt>
      <trkpt lat="50.47587" lon="1.60444">
        <ele>13.89</ele>
        <time>2020-06-12T17:37:59Z</time>
      </trkpt>
      <trkpt lat="50.47586" lon="1.6047">
        <ele>14.597</ele>
        <time>2020-06-12T17:38:02Z</time>
      </trkpt>
      <trkpt lat="50.47588" lon="1.60497">
        <ele>15.367</ele>
        <time>2020-06-12T17:38:05Z</time>
      </trkpt>
      <trkpt lat="50.47595" lon="1.60524">
        <ele>15.171</ele>
        <time>2020-06-12T17:38:08Z</time>
      </trkpt>
      <trkpt lat="50.47604" lon="1.60549">
        <ele>15.295</ele>
        <time>2020-06-12T17:38:11Z</time>
      </trkpt>
      <trkpt lat="50.47619" lon="1.60569">
        <ele>15.459</ele>
        <time>2020-06-12T17:38:14Z</time>
      </trkpt>
      <trkpt lat="50.47635" lon="1.60584">
        <ele>15.443</ele>
        <time>2020-06-12T17:38:17Z</time>
      </trkpt>
      <trkpt lat="50.47656" lon="1.60598">
        <ele>14.573</ele>
        <time>2020-06-12T17:38:20Z</time>
      </trkpt>
      <trkpt lat="50.47674" lon="1.60608">
        <ele>13.873</ele>
        <time>2020-06-12T17:38:23Z</time>
      </trkpt>
      <trkpt lat="50.47679" lon="1.60629">
        <ele>13.921</ele>
        <time>2020-06-12T17:38:26Z</time>
      </trkpt>
      <trkpt lat="50.47667" lon="1.6065">
        <ele>14.376</ele>
        <time>2020-06-12T17:38:29Z</time>
      </trkpt>
      <trkpt lat="50.47652" lon="1.60672">
        <ele>14.333</ele>
        <time>2020-06-12T17:38:32Z</time>
      </trkpt>
      <trkpt lat="50.47643" lon="1.60698">
        <ele>14.55</ele>
        <time>2020-06-12T17:38:35Z</time>
      </trkpt>
      <trkpt lat="50.47636" lon="1.60725">
        <ele>14.657</ele>
        <time>2020-06-12T17:38:38Z</time>
      </trkpt>
      <trkpt lat="50.47632" lon="1.60754">
        <ele>14.751</ele>
        <time>2020-06-12T17:38:41Z</time>
      </trkpt>
      <trkpt lat="50.4763" lon="1.60784">
        <ele>14.61</ele>
        <time>2020-06-12T17:38:44Z</time>
      </trkpt>
      <trkpt lat="50.47628" lon="1.60815">
        <ele>14.454</ele>
        <time>2020-06-12T17:38:47Z</time>
      </trkpt>
      <trkpt lat="50.47625" lon="1.60843">
        <ele>14.228</ele>
        <time>2020-06-12T17:38:50Z</time>
      </trkpt>
      <trkpt lat="50.47622" lon="1.60869">
        <ele>14.48</ele>
        <time>2020-06-12T17:38:53Z</time>
      </trkpt>
      <trkpt lat="50.4762" lon="1.60894">
        <ele>14.001</ele>
        <time>2020-06-12T17:38:56Z</time>
      </trkpt>
      <trkpt lat="50.47618" lon="1.60919">
        <ele>13.523</ele>
        <time>2020-06-12T17:38:59Z</time>
      </trkpt>
      <trkpt lat="50.47616" lon="1.60944">
        <ele>13.582</ele>
        <time>2020-06-12T17:39:02Z</time>
      </trkpt>
      <trkpt lat="50.47615" lon="1.60969">
        <ele>14.129</ele>
        <time>2020-06-12T17:39:05Z</time>
      </trkpt>
      <trkpt lat="50.47613" lon="1.60995">
        <ele>13.765</ele>
        <time>2020-06-12T17:39:08Z</time>
      </trkpt>
      <trkpt lat="50.47609" lon="1.61021">
        <ele>12.667</ele>
        <time>2020-06-12T17:39:11Z</time>
      </trkpt>
      <trkpt lat="50.47607" lon="1.61051">
        <ele>12.152</ele>
        <time>2020-06-12T17:39:14Z</time>
      </trkpt>
      <trkpt lat="50.47605" lon="1.61082">
        <ele>11.188</ele>
        <time>2020-06-12T17:39:17Z</time>
      </trkpt>
      <trkpt lat="50.47603" lon="1.61115">
        <ele>10.754</ele>
        <time>2020-06-12T17:39:20Z</time>
      </trkpt>
      <trkpt lat="50.47599" lon="1.61151">
        <ele>10.053</ele>
        <time>2020-06-12T17:39:23Z</time>
      </trkpt>
      <trkpt lat="50.47596" lon="1.61188">
        <ele>10.005</ele>
        <time>2020-06-12T17:39:26Z</time>
      </trkpt>
      <trkpt lat="50.47597" lon="1.61228">
        <ele>8.738</ele>
        <time>2020-06-12T17:39:29Z</time>
      </trkpt>
      <trkpt lat="50.47605" lon="1.61266">
        <ele>7.355</ele>
        <time>2020-06-12T17:39:32Z</time>
      </trkpt>
      <trkpt lat="50.47614" lon="1.61304">
        <ele>5.871</ele>
        <time>2020-06-12T17:39:35Z</time>
      </trkpt>
      <trkpt lat="50.47622" lon="1.61339">
        <ele>5.51</ele>
        <time>2020-06-12T17:39:38Z</time>
      </trkpt>
      <trkpt lat="50.4763" lon="1.61375">
        <ele>5.776</ele>
        <time>2020-06-12T17:39:41Z</time>
      </trkpt>
      <trkpt lat="50.47637" lon="1.61411">
        <ele>5.776</ele>
        <time>2020-06-12T17:39:44Z</time>
      </trkpt>
      <trkpt lat="50.47644" lon="1.61444">
        <ele>5.096</ele>
        <time>2020-06-12T17:39:47Z</time>
      </trkpt>
      <trkpt lat="50.47652" lon="1.61476">
        <ele>4.18</ele>
        <time>2020-06-12T17:39:50Z</time>
      </trkpt>
      <trkpt lat="50.4766" lon="1.61507">
        <ele>3.87</ele>
        <time>2020-06-12T17:39:53Z</time>
      </trkpt>
      <trkpt lat="50.47669" lon="1.61538">
        <ele>3.676</ele>
        <time>2020-06-12T17:39:56Z</time>
      </trkpt>
      <trkpt lat="50.47678" lon="1.61569">
        <ele>3.355</ele>
        <time>2020-06-12T17:39:59Z</time>
      </trkpt>
      <trkpt lat="50.47684" lon="1.616">
        <ele>2.751</ele>
        <time>2020-06-12T17:40:02Z</time>
      </trkpt>
      <trkpt lat="50.47686" lon="1.61632">
        <ele>2.325</ele>
        <time>2020-06-12T17:40:05Z</time>
      </trkpt>
      <trkpt lat="50.47686" lon="1.61665">
        <ele>1.7</ele>
        <time>2020-06-12T17:40:08Z</time>
      </trkpt>
      <trkpt lat="50.47684" lon="1.61696">
        <ele>1.019</ele>
        <time>2020-06-12T17:40:11Z</time>
      </trkpt>
      <trkpt lat="50.47682" lon="1.61726">
        <ele>0.782</ele>
        <time>2020-06-12T17:40:14Z</time>
      </trkpt>
      <trkpt lat="50.47692" lon="1.61745">
        <ele>0.375</ele>
        <time>2020-06-12T17:40:17Z</time>
      </trkpt>
      <trkpt lat="50.47709" lon="1.61744">
        <ele>-0.144</ele>
        <time>2020-06-12T17:40:20Z</time>
      </trkpt>
      <trkpt lat="50.47726" lon="1.61743">
        <ele>-0.067</ele>
        <time>2020-06-12T17:40:23Z</time>
      </trkpt>
      <trkpt lat="50.47745" lon="1.61749">
        <ele>-0.415</ele>
        <time>2020-06-12T17:40:26Z</time>
      </trkpt>
      <trkpt lat="50.47766" lon="1.61753">
        <ele>-0.828</ele>
        <time>2020-06-12T17:40:29Z</time>
      </trkpt>
      <trkpt lat="50.47786" lon="1.61758">
        <ele>-0.613</ele>
        <time>2020-06-12T17:40:32Z</time>
      </trkpt>
      <trkpt lat="50.47804" lon="1.61764">
        <ele>-0.575</ele>
        <time>2020-06-12T17:40:35Z</time>
      </trkpt>
      <trkpt lat="50.47824" lon="1.61768">
        <ele>-0.935</ele>
        <time>2020-06-12T17:40:38Z</time>
      </trkpt>
      <trkpt lat="50.47844" lon="1.61773">
        <ele>-0.554</ele>
        <time>2020-06-12T17:40:41Z</time>
      </trkpt>
      <trkpt lat="50.47864" lon="1.61778">
        <ele>-0.063</ele>
        <time>2020-06-12T17:40:44Z</time>
      </trkpt>
      <trkpt lat="50.47883" lon="1.61783">
        <ele>0.732</ele>
        <time>2020-06-12T17:40:47Z</time>
      </trkpt>
      <trkpt lat="50.47901" lon="1.61787">
        <ele>1.969</ele>
        <time>2020-06-12T17:40:50Z</time>
      </trkpt>
      <trkpt lat="50.47918" lon="1.61791">
        <ele>3.225</ele>
        <time>2020-06-12T17:40:53Z</time>
      </trkpt>
      <trkpt lat="50.47936" lon="1.61792">
        <ele>3.951</ele>
        <time>2020-06-12T17:40:56Z</time>
      </trkpt>
      <trkpt lat="50.47954" lon="1.61796">
        <ele>4.114</ele>
        <time>2020-06-12T17:40:59Z</time>
      </trkpt>
      <trkpt lat="50.47974" lon="1.61799">
        <ele>4.06</ele>
        <time>2020-06-12T17:41:02Z</time>
      </trkpt>
      <trkpt lat="50.47993" lon="1.61795">
        <ele>4.314</ele>
        <time>2020-06-12T17:41:05Z</time>
      </trkpt>
      <trkpt lat="50.48011" lon="1.61784">
        <ele>4.6</ele>
        <time>2020-06-12T17:41:08Z</time>
      </trkpt>
      <trkpt lat="50.48029" lon="1.61772">
        <ele>4.291</ele>
        <time>2020-06-12T17:41:11Z</time>
      </trkpt>
      <trkpt lat="50.48046" lon="1.61764">
        <ele>3.745</ele>
        <time>2020-06-12T17:41:14Z</time>
      </trkpt>
      <trkpt lat="50.48064" lon="1.61765">
        <ele>3.447</ele>
        <time>2020-06-12T17:41:17Z</time>
      </trkpt>
      <trkpt lat="50.48082" lon="1.61767">
        <ele>3.044</ele>
        <time>2020-06-12T17:41:20Z</time>
      </trkpt>
      <trkpt lat="50.48098" lon="1.61769">
        <ele>2.699</ele>
        <time>2020-06-12T17:41:23Z</time>
      </trkpt>
      <trkpt lat="50.48116" lon="1.6177">
        <ele>2.786</ele>
        <time>2020-06-12T17:41:26Z</time>
      </trkpt>
      <trkpt lat="50.48133" lon="1.6177">
        <ele>3.024</ele>
        <time>2020-06-12T17:41:29Z</time>
      </trkpt>
      <trkpt lat="50.48154" lon="1.61769">
        <ele>2.974</ele>
        <time>2020-06-12T17:41:32Z</time>
      </trkpt>
      <trkpt lat="50.48176" lon="1.61767">
        <ele>3.295</ele>
        <time>2020-06-12T17:41:35Z</time>
      </trkpt>
      <trkpt lat="50.48197" lon="1.61765">
        <ele>3.721</ele>
        <time>2020-06-12T17:41:38Z</time>
      </trkpt>
      <trkpt lat="50.48218" lon="1.61763">
        <ele>4.082</ele>
        <time>2020-06-12T17:41:41Z</time>
      </trkpt>
      <trkpt lat="50.48238" lon="1.6176">
        <ele>4.855</ele>
        <time>2020-06-12T17:41:44Z</time>
      </trkpt>
      <trkpt lat="50.48254" lon="1.61751">
        <ele>5.8</ele>
        <time>2020-06-12T17:41:47Z</time>
      </trkpt>
      <trkpt lat="50.48269" lon="1.61737">
        <ele>6.826</ele>
        <time>2020-06-12T17:41:50Z</time>
      </trkpt>
      <trkpt lat="50.48286" lon="1.6172">
        <ele>7.073</ele>
        <time>2020-06-12T17:41:53Z</time>
      </trkpt>
      <trkpt lat="50.48304" lon="1.61706">
        <ele>5.778</ele>
        <time>2020-06-12T17:41:56Z</time>
      </trkpt>
      <trkpt lat="50.4832" lon="1.61691">
        <ele>5.301</ele>
        <time>2020-06-12T17:41:59Z</time>
      </trkpt>
      <trkpt lat="50.48338" lon="1.61676">
        <ele>5.486</ele>
        <time>2020-06-12T17:42:02Z</time>
      </trkpt>
      <trkpt lat="50.48357" lon="1.6167">
        <ele>5.594</ele>
        <time>2020-06-12T17:42:05Z</time>
      </trkpt>
      <trkpt lat="50.48374" lon="1.6169">
        <ele>5.575</ele>
        <time>2020-06-12T17:42:08Z</time>
      </trkpt>
      <trkpt lat="50.4838" lon="1.61721">
        <ele>5.332</ele>
        <time>2020-06-12T17:42:11Z</time>
      </trkpt>
      <trkpt lat="50.48384" lon="1.6175">
        <ele>5.262</ele>
        <time>2020-06-12T17:42:14Z</time>
      </trkpt>
      <trkpt lat="50.48389" lon="1.61777">
        <ele>4.964</ele>
        <time>2020-06-12T17:42:17Z</time>
      </trkpt>
      <trkpt lat="50.48393" lon="1.61804">
        <ele>4.966</ele>
        <time>2020-06-12T17:42:20Z</time>
      </trkpt>
      <trkpt lat="50.48396" lon="1.61831">
        <ele>4.944</ele>
        <time>2020-06-12T17:42:23Z</time>
      </trkpt>
      <trkpt lat="50.48401" lon="1.61858">
        <ele>4.775</ele>
        <time>2020-06-12T17:42:26Z</time>
      </trkpt>
      <trkpt lat="50.48405" lon="1.61885">
        <ele>4.711</ele>
        <time>2020-06-12T17:42:29Z</time>
      </trkpt>
      <trkpt lat="50.48409" lon="1.61912">
        <ele>4.275</ele>
        <time>2020-06-12T17:42:32Z</time>
      </trkpt>
      <trkpt lat="50.48414" lon="1.6194">
        <ele>3.62</ele>
        <time>2020-06-12T17:42:35Z</time>
      </trkpt>
      <trkpt lat="50.48419" lon="1.61968">
        <ele>2.975</ele>
        <time>2020-06-12T17:42:38Z</time>
      </trkpt>
      <trkpt lat="50.48424" lon="1.61997">
        <ele>2.625</ele>
        <time>2020-06-12T17:42:41Z</time>
      </trkpt>
      <trkpt lat="50.48429" lon="1.62023">
        <ele>2.982</ele>
        <time>2020-06-12T17:42:44Z</time>
      </trkpt>
      <trkpt lat="50.48435" lon="1.62048">
        <ele>2.945</ele>
        <time>2020-06-12T17:42:47Z</time>
      </trkpt>
      <trkpt lat="50.48441" lon="1.62076">
        <ele>3.333</ele>
        <time>2020-06-12T17:42:50Z</time>
      </trkpt>
      <trkpt lat="50.48446" lon="1.62104">
        <ele>3.946</ele>
        <time>2020-06-12T17:42:53Z</time>
      </trkpt>
      <trkpt lat="50.4845" lon="1.62134">
        <ele>3.716</ele>
        <time>2020-06-12T17:42:56Z</time>
      </trkpt>
      <trkpt lat="50.48454" lon="1.62162">
        <ele>3.461</ele>
        <time>2020-06-12T17:42:59Z</time>
      </trkpt>
      <trkpt lat="50.48459" lon="1.6219">
        <ele>3.474</ele>
        <time>2020-06-12T17:43:02Z</time>
      </trkpt>
      <trkpt lat="50.48463" lon="1.62218">
        <ele>3.157</ele>
        <time>2020-06-12T17:43:05Z</time>
      </trkpt>
      <trkpt lat="50.48469" lon="1.62244">
        <ele>3.055</ele>
        <time>2020-06-12T17:43:08Z</time>
      </trkpt>
      <trkpt lat="50.48474" lon="1.6227">
        <ele>2.82</ele>
        <time>2020-06-12T17:43:11Z</time>
      </trkpt>
      <trkpt lat="50.48478" lon="1.62296">
        <ele>2.558</ele>
        <time>2020-06-12T17:43:14Z</time>
      </trkpt>
      <trkpt lat="50.48483" lon="1.62321">
        <ele>2.415</ele>
        <time>2020-06-12T17:43:17Z</time>
      </trkpt>
      <trkpt lat="50.48487" lon="1.62347">
        <ele>2.582</ele>
        <time>2020-06-12T17:43:20Z</time>
      </trkpt>
      <trkpt lat="50.48491" lon="1.62373">
        <ele>2.705</ele>
        <time>2020-06-12T17:43:23Z</time>
      </trkpt>
      <trkpt lat="50.48488" lon="1.62397">
        <ele>2.988</ele>
        <time>2020-06-12T17:43:26Z</time>
      </trkpt>
      <trkpt lat="50.48474" lon="1.62408">
        <ele>3.207</ele>
        <time>2020-06-12T17:43:29Z</time>
      </trkpt>
      <trkpt lat="50.48457" lon="1.62412">
        <ele>3.84</ele>
        <time>2020-06-12T17:43:32Z</time>
      </trkpt>
      <trkpt lat="50.48441" lon="1.62414">
        <ele>4.143</ele>
        <time>2020-06-12T17:43:35Z</time>
      </trkpt>
      <trkpt lat="50.48425" lon="1.62413">
        <ele>4.545</ele>
        <time>2020-06-12T17:43:38Z</time>
      </trkpt>
      <trkpt lat="50.48408" lon="1.6241">
        <ele>5.018</ele>
        <time>2020-06-12T17:43:41Z</time>
      </trkpt>
      <trkpt lat="50.48393" lon="1.62408">
        <ele>5.417</ele>
        <time>2020-06-12T17:43:44Z</time>
      </trkpt>
      <trkpt lat="50.48376" lon="1.62406">
        <ele>5.478</ele>
        <time>2020-06-12T17:43:47Z</time>
      </trkpt>
      <trkpt lat="50.4836" lon="1.62404">
        <ele>5.939</ele>
        <time>2020-06-12T17:43:50Z</time>
      </trkpt>
      <trkpt lat="50.48345" lon="1.62403">
        <ele>6.068</ele>
        <time>2020-06-12T17:43:53Z</time>
      </trkpt>
      <trkpt lat="50.48336" lon="1.62421">
        <ele>5.417</ele>
        <time>2020-06-12T17:43:56Z</time>
      </trkpt>
      <trkpt lat="50.48342" lon="1.62447">
        <ele>5.443</ele>
        <time>2020-06-12T17:43:59Z</time>
      </trkpt>
      <trkpt lat="50.48352" lon="1.62469">
        <ele>5.626</ele>
        <time>2020-06-12T17:44:02Z</time>
      </trkpt>
      <trkpt lat="50.4836" lon="1.62493">
        <ele>5.844</ele>
        <time>2020-06-12T17:44:05Z</time>
      </trkpt>
      <trkpt lat="50.48368" lon="1.62517">
        <ele>5.792</ele>
        <time>2020-06-12T17:44:08Z</time>
      </trkpt>
      <trkpt lat="50.48377" lon="1.62542">
        <ele>6.146</ele>
        <time>2020-06-12T17:44:11Z</time>
      </trkpt>
      <trkpt lat="50.48385" lon="1.62568">
        <ele>6.852</ele>
        <time>2020-06-12T17:44:14Z</time>
      </trkpt>
      <trkpt lat="50.48393" lon="1.62592">
        <ele>7.343</ele>
        <time>2020-06-12T17:44:17Z</time>
      </trkpt>
      <trkpt lat="50.48402" lon="1.6262">
        <ele>7.905</ele>
        <time>2020-06-12T17:44:20Z</time>
      </trkpt>
      <trkpt lat="50.4841" lon="1.62651">
        <ele>8.566</ele>
        <time>2020-06-12T17:44:23Z</time>
      </trkpt>
      <trkpt lat="50.48418" lon="1.62678">
        <ele>8.981</ele>
        <time>2020-06-12T17:44:26Z</time>
      </trkpt>
      <trkpt lat="50.48427" lon="1.62706">
        <ele>9.185</ele>
        <time>2020-06-12T17:44:29Z</time>
      </trkpt>
      <trkpt lat="50.48436" lon="1.62734">
        <ele>9.42</ele>
        <time>2020-06-12T17:44:32Z</time>
      </trkpt>
      <trkpt lat="50.48444" lon="1.62761">
        <ele>9.249</ele>
        <time>2020-06-12T17:44:35Z</time>
      </trkpt>
      <trkpt lat="50.48452" lon="1.62787">
        <ele>9.308</ele>
        <time>2020-06-12T17:44:38Z</time>
      </trkpt>
      <trkpt lat="50.48459" lon="1.62815">
        <ele>8.889</ele>
        <time>2020-06-12T17:44:41Z</time>
      </trkpt>
      <trkpt lat="50.48467" lon="1.62845">
        <ele>7.875</ele>
        <time>2020-06-12T17:44:44Z</time>
      </trkpt>
      <trkpt lat="50.48474" lon="1.62876">
        <ele>7.588</ele>
        <time>2020-06-12T17:44:47Z</time>
      </trkpt>
      <trkpt lat="50.48481" lon="1.62904">
        <ele>7.066</ele>
        <time>2020-06-12T17:44:50Z</time>
      </trkpt>
      <trkpt lat="50.48487" lon="1.62932">
        <ele>6.506</ele>
        <time>2020-06-12T17:44:53Z</time>
      </trkpt>
      <trkpt lat="50.48493" lon="1.6296">
        <ele>6.38</ele>
        <time>2020-06-12T17:44:56Z</time>
      </trkpt>
      <trkpt lat="50.485" lon="1.62987">
        <ele>5.796</ele>
        <time>2020-06-12T17:44:59Z</time>
      </trkpt>
      <trkpt lat="50.48507" lon="1.63014">
        <ele>5.292</ele>
        <time>2020-06-12T17:45:02Z</time>
      </trkpt>
      <trkpt lat="50.48513" lon="1.6304">
        <ele>5.23</ele>
        <time>2020-06-12T17:45:05Z</time>
      </trkpt>
      <trkpt lat="50.4852" lon="1.63067">
        <ele>5.055</ele>
        <time>2020-06-12T17:45:08Z</time>
      </trkpt>
      <trkpt lat="50.48526" lon="1.63094">
        <ele>4.49</ele>
        <time>2020-06-12T17:45:11Z</time>
      </trkpt>
      <trkpt lat="50.48532" lon="1.63123">
        <ele>4.409</ele>
        <time>2020-06-12T17:45:14Z</time>
      </trkpt>
      <trkpt lat="50.48538" lon="1.6315">
        <ele>4.349</ele>
        <time>2020-06-12T17:45:17Z</time>
      </trkpt>
      <trkpt lat="50.48543" lon="1.63179">
        <ele>4.087</ele>
        <time>2020-06-12T17:45:20Z</time>
      </trkpt>
      <trkpt lat="50.48549" lon="1.6321">
        <ele>3.507</ele>
        <time>2020-06-12T17:45:23Z</time>
      </trkpt>
      <trkpt lat="50.48554" lon="1.63241">
        <ele>3.885</ele>
        <time>2020-06-12T17:45:26Z</time>
      </trkpt>
      <trkpt lat="50.48559" lon="1.6327">
        <ele>4.956</ele>
        <time>2020-06-12T17:45:29Z</time>
      </trkpt>
      <trkpt lat="50.48564" lon="1.63299">
        <ele>5.724</ele>
        <time>2020-06-12T17:45:32Z</time>
      </trkpt>
      <trkpt lat="50.4857" lon="1.63329">
        <ele>6.013</ele>
        <time>2020-06-12T17:45:35Z</time>
      </trkpt>
      <trkpt lat="50.48576" lon="1.63359">
        <ele>6.015</ele>
        <time>2020-06-12T17:45:38Z</time>
      </trkpt>
      <trkpt lat="50.48581" lon="1.63387">
        <ele>6.115</ele>
        <time>2020-06-12T17:45:41Z</time>
      </trkpt>
      <trkpt lat="50.48586" lon="1.63416">
        <ele>6.034</ele>
        <time>2020-06-12T17:45:44Z</time>
      </trkpt>
      <trkpt lat="50.48591" lon="1.63445">
        <ele>5.695</ele>
        <time>2020-06-12T17:45:47Z</time>
      </trkpt>
      <trkpt lat="50.48594" lon="1.63473">
        <ele>5.417</ele>
        <time>2020-06-12T17:45:50Z</time>
      </trkpt>
      <trkpt lat="50.48598" lon="1.635">
        <ele>5.754</ele>
        <time>2020-06-12T17:45:53Z</time>
      </trkpt>
      <trkpt lat="50.48601" lon="1.63528">
        <ele>5.829</ele>
        <time>2020-06-12T17:45:56Z</time>
      </trkpt>
      <trkpt lat="50.48605" lon="1.63555">
        <ele>5.446</ele>
        <time>2020-06-12T17:45:59Z</time>
      </trkpt>
      <trkpt lat="50.4861" lon="1.63585">
        <ele>4.831</ele>
        <time>2020-06-12T17:46:02Z</time>
      </trkpt>
      <trkpt lat="50.48616" lon="1.63615">
        <ele>4.736</ele>
        <time>2020-06-12T17:46:05Z</time>
      </trkpt>
      <trkpt lat="50.48622" lon="1.63647">
        <ele>4.987</ele>
        <time>2020-06-12T17:46:08Z</time>
      </trkpt>
      <trkpt lat="50.48627" lon="1.63678">
        <ele>4.616</ele>
        <time>2020-06-12T17:46:11Z</time>
      </trkpt>
      <trkpt lat="50.48632" lon="1.63708">
        <ele>4.328</ele>
        <time>2020-06-12T17:46:14Z</time>
      </trkpt>
      <trkpt lat="50.48636" lon="1.63737">
        <ele>4.449</ele>
        <time>2020-06-12T17:46:17Z</time>
      </trkpt>
      <trkpt lat="50.48638" lon="1.63768">
        <ele>4.695</ele>
        <time>2020-06-12T17:46:20Z</time>
      </trkpt>
      <trkpt lat="50.48638" lon="1.63799">
        <ele>4.503</ele>
        <time>2020-06-12T17:46:23Z</time>
      </trkpt>
      <trkpt lat="50.48636" lon="1.63827">
        <ele>4.562</ele>
        <time>2020-06-12T17:46:26Z</time>
      </trkpt>
      <trkpt lat="50.48632" lon="1.63855">
        <ele>4.492</ele>
        <time>2020-06-12T17:46:29Z</time>
      </trkpt>
      <trkpt lat="50.48628" lon="1.63882">
        <ele>4.443</ele>
        <time>2020-06-12T17:46:32Z</time>
      </trkpt>
      <trkpt lat="50.48624" lon="1.6391">
        <ele>4.525</ele>
        <time>2020-06-12T17:46:35Z</time>
      </trkpt>
      <trkpt lat="50.48621" lon="1.63941">
        <ele>4.476</ele>
        <time>2020-06-12T17:46:38Z</time>
      </trkpt>
      <trkpt lat="50.48618" lon="1.6397">
        <ele>4.536</ele>
        <time>2020-06-12T17:46:41Z</time>
      </trkpt>
      <trkpt lat="50.48614" lon="1.64">
        <ele>4.499</ele>
        <time>2020-06-12T17:46:44Z</time>
      </trkpt>
      <trkpt lat="50.4861" lon="1.64028">
        <ele>4.498</ele>
        <time>2020-06-12T17:46:47Z</time>
      </trkpt>
      <trkpt lat="50.48606" lon="1.64056">
        <ele>4.257</ele>
        <time>2020-06-12T17:46:50Z</time>
      </trkpt>
      <trkpt lat="50.48603" lon="1.64084">
        <ele>4.155</ele>
        <time>2020-06-12T17:46:53Z</time>
      </trkpt>
      <trkpt lat="50.48599" lon="1.64111">
        <ele>3.648</ele>
        <time>2020-06-12T17:46:56Z</time>
      </trkpt>
      <trkpt lat="50.48595" lon="1.64138">
        <ele>3.152</ele>
        <time>2020-06-12T17:46:59Z</time>
      </trkpt>
      <trkpt lat="50.48589" lon="1.64165">
        <ele>2.494</ele>
        <time>2020-06-12T17:47:02Z</time>
      </trkpt>
      <trkpt lat="50.48582" lon="1.6419">
        <ele>1.828</ele>
        <time>2020-06-12T17:47:05Z</time>
      </trkpt>
      <trkpt lat="50.48575" lon="1.64215">
        <ele>1.271</ele>
        <time>2020-06-12T17:47:08Z</time>
      </trkpt>
      <trkpt lat="50.48568" lon="1.64241">
        <ele>1.173</ele>
        <time>2020-06-12T17:47:11Z</time>
      </trkpt>
      <trkpt lat="50.4856" lon="1.64264">
        <ele>1.521</ele>
        <time>2020-06-12T17:47:14Z</time>
      </trkpt>
      <trkpt lat="50.48549" lon="1.64288">
        <ele>1.932</ele>
        <time>2020-06-12T17:47:17Z</time>
      </trkpt>
      <trkpt lat="50.48537" lon="1.64307">
        <ele>2.011</ele>
        <time>2020-06-12T17:47:20Z</time>
      </trkpt>
      <trkpt lat="50.48526" lon="1.64327">
        <ele>1.823</ele>
        <time>2020-06-12T17:47:23Z</time>
      </trkpt>
      <trkpt lat="50.48518" lon="1.64352">
        <ele>2.116</ele>
        <time>2020-06-12T17:47:26Z</time>
      </trkpt>
      <trkpt lat="50.48511" lon="1.64379">
        <ele>2.645</ele>
        <time>2020-06-12T17:47:29Z</time>
      </trkpt>
      <trkpt lat="50.48506" lon="1.64407">
        <ele>3.439</ele>
        <time>2020-06-12T17:47:32Z</time>
      </trkpt>
      <trkpt lat="50.485" lon="1.64435">
        <ele>4.448</ele>
        <time>2020-06-12T17:47:35Z</time>
      </trkpt>
      <trkpt lat="50.48493" lon="1.6446">
        <ele>5.245</ele>
        <time>2020-06-12T17:47:38Z</time>
      </trkpt>
      <trkpt lat="50.48487" lon="1.64484">
        <ele>5.626</ele>
        <time>2020-06-12T17:47:41Z</time>
      </trkpt>
      <trkpt lat="50.4848" lon="1.64506">
        <ele>5.514</ele>
        <time>2020-06-12T17:47:44Z</time>
      </trkpt>
      <trkpt lat="50.48476" lon="1.64527">
        <ele>4.772</ele>
        <time>2020-06-12T17:47:47Z</time>
      </trkpt>
      <trkpt lat="50.48474" lon="1.6455">
        <ele>4.47</ele>
        <time>2020-06-12T17:47:50Z</time>
      </trkpt>
      <trkpt lat="50.48477" lon="1.64574">
        <ele>4.685</ele>
        <time>2020-06-12T17:47:53Z</time>
      </trkpt>
      <trkpt lat="50.4848" lon="1.64599">
        <ele>5.44</ele>
        <time>2020-06-12T17:47:56Z</time>
      </trkpt>
      <trkpt lat="50.48482" lon="1.64623">
        <ele>5.906</ele>
        <time>2020-06-12T17:47:59Z</time>
      </trkpt>
      <trkpt lat="50.4848" lon="1.64646">
        <ele>6.66</ele>
        <time>2020-06-12T17:48:02Z</time>
      </trkpt>
      <trkpt lat="50.48478" lon="1.64668">
        <ele>6.554</ele>
        <time>2020-06-12T17:48:05Z</time>
      </trkpt>
      <trkpt lat="50.48475" lon="1.64691">
        <ele>6.262</ele>
        <time>2020-06-12T17:48:08Z</time>
      </trkpt>
      <trkpt lat="50.48473" lon="1.64712">
        <ele>5.895</ele>
        <time>2020-06-12T17:48:11Z</time>
      </trkpt>
      <trkpt lat="50.48469" lon="1.64735">
        <ele>6.549</ele>
        <time>2020-06-12T17:48:14Z</time>
      </trkpt>
      <trkpt lat="50.48459" lon="1.64755">
        <ele>6.96</ele>
        <time>2020-06-12T17:48:17Z</time>
      </trkpt>
      <trkpt lat="50.48444" lon="1.64765">
        <ele>6.687</ele>
        <time>2020-06-12T17:48:20Z</time>
      </trkpt>
      <trkpt lat="50.48428" lon="1.64774">
        <ele>5.979</ele>
        <time>2020-06-12T17:48:23Z</time>
      </trkpt>
      <trkpt lat="50.48413" lon="1.64784">
        <ele>4.921</ele>
        <time>2020-06-12T17:48:26Z</time>
      </trkpt>
      <trkpt lat="50.48399" lon="1.64795">
        <ele>3.982</ele>
        <time>2020-06-12T17:48:29Z</time>
      </trkpt>
      <trkpt lat="50.48384" lon="1.64801">
        <ele>2.795</ele>
        <time>2020-06-12T17:48:32Z</time>
      </trkpt>
      <trkpt lat="50.4837" lon="1.64808">
        <ele>3.674</ele>
        <time>2020-06-12T17:48:35Z</time>
      </trkpt>
      <trkpt lat="50.48356" lon="1.64815">
        <ele>4.57</ele>
        <time>2020-06-12T17:48:38Z</time>
      </trkpt>
      <trkpt lat="50.48341" lon="1.64824">
        <ele>5.249</ele>
        <time>2020-06-12T17:48:41Z</time>
      </trkpt>
      <trkpt lat="50.48326" lon="1.64834">
        <ele>5.701</ele>
        <time>2020-06-12T17:48:44Z</time>
      </trkpt>
      <trkpt lat="50.48312" lon="1.64843">
        <ele>6.788</ele>
        <time>2020-06-12T17:48:47Z</time>
      </trkpt>
      <trkpt lat="50.48297" lon="1.64852">
        <ele>7.478</ele>
        <time>2020-06-12T17:48:50Z</time>
      </trkpt>
      <trkpt lat="50.48282" lon="1.64858">
        <ele>7.895</ele>
        <time>2020-06-12T17:48:53Z</time>
      </trkpt>
      <trkpt lat="50.48267" lon="1.64865">
        <ele>8.941</ele>
        <time>2020-06-12T17:48:56Z</time>
      </trkpt>
      <trkpt lat="50.48253" lon="1.64871">
        <ele>9.36</ele>
        <time>2020-06-12T17:48:59Z</time>
      </trkpt>
      <trkpt lat="50.48239" lon="1.64876">
        <ele>9.435</ele>
        <time>2020-06-12T17:49:02Z</time>
      </trkpt>
      <trkpt lat="50.48224" lon="1.64879">
        <ele>9.291</ele>
        <time>2020-06-12T17:49:05Z</time>
      </trkpt>
      <trkpt lat="50.48209" lon="1.64881">
        <ele>9.105</ele>
        <time>2020-06-12T17:49:08Z</time>
      </trkpt>
      <trkpt lat="50.48193" lon="1.64882">
        <ele>8.871</ele>
        <time>2020-06-12T17:49:11Z</time>
      </trkpt>
      <trkpt lat="50.48177" lon="1.64882">
        <ele>8.573</ele>
        <time>2020-06-12T17:49:14Z</time>
      </trkpt>
      <trkpt lat="50.48161" lon="1.64884">
        <ele>8.351</ele>
        <time>2020-06-12T17:49:17Z</time>
      </trkpt>
      <trkpt lat="50.48145" lon="1.64886">
        <ele>7.762</ele>
        <time>2020-06-12T17:49:20Z</time>
      </trkpt>
      <trkpt lat="50.4813" lon="1.64888">
        <ele>7.034</ele>
        <time>2020-06-12T17:49:23Z</time>
      </trkpt>
      <trkpt lat="50.48114" lon="1.6489">
        <ele>6.772</ele>
        <time>2020-06-12T17:49:26Z</time>
      </trkpt>
      <trkpt lat="50.48098" lon="1.64892">
        <ele>6.655</ele>
        <time>2020-06-12T17:49:29Z</time>
      </trkpt>
      <trkpt lat="50.48083" lon="1.64895">
        <ele>7.1</ele>
        <time>2020-06-12T17:49:32Z</time>
      </trkpt>
      <trkpt lat="50.48068" lon="1.649">
        <ele>7.681</ele>
        <time>2020-06-12T17:49:35Z</time>
      </trkpt>
      <trkpt lat="50.48053" lon="1.64907">
        <ele>8.037</ele>
        <time>2020-06-12T17:49:38Z</time>
      </trkpt>
      <trkpt lat="50.48039" lon="1.64914">
        <ele>8.288</ele>
        <time>2020-06-12T17:49:41Z</time>
      </trkpt>
      <trkpt lat="50.48025" lon="1.64924">
        <ele>8.759</ele>
        <time>2020-06-12T17:49:44Z</time>
      </trkpt>
      <trkpt lat="50.4801" lon="1.64931">
        <ele>8.651</ele>
        <time>2020-06-12T17:49:47Z</time>
      </trkpt>
      <trkpt lat="50.47996" lon="1.64935">
        <ele>8.485</ele>
        <time>2020-06-12T17:49:50Z</time>
      </trkpt>
      <trkpt lat="50.47983" lon="1.64942">
        <ele>8.388</ele>
        <time>2020-06-12T17:49:53Z</time>
      </trkpt>
      <trkpt lat="50.47972" lon="1.64958">
        <ele>8.647</ele>
        <time>2020-06-12T17:49:56Z</time>
      </trkpt>
      <trkpt lat="50.47958" lon="1.64967">
        <ele>9.219</ele>
        <time>2020-06-12T17:49:59Z</time>
      </trkpt>
      <trkpt lat="50.47945" lon="1.64975">
        <ele>9.519</ele>
        <time>2020-06-12T17:50:02Z</time>
      </trkpt>
      <trkpt lat="50.47932" lon="1.64982">
        <ele>9.836</ele>
        <time>2020-06-12T17:50:05Z</time>
      </trkpt>
      <trkpt lat="50.4792" lon="1.64992">
        <ele>10.382</ele>
        <time>2020-06-12T17:50:08Z</time>
      </trkpt>
      <trkpt lat="50.47908" lon="1.65003">
        <ele>10.833</ele>
        <time>2020-06-12T17:50:11Z</time>
      </trkpt>
      <trkpt lat="50.47895" lon="1.65013">
        <ele>11.107</ele>
        <time>2020-06-12T17:50:14Z</time>
      </trkpt>
      <trkpt lat="50.47882" lon="1.65022">
        <ele>11.668</ele>
        <time>2020-06-12T17:50:17Z</time>
      </trkpt>
      <trkpt lat="50.47869" lon="1.65031">
        <ele>12.04</ele>
        <time>2020-06-12T17:50:20Z</time>
      </trkpt>
      <trkpt lat="50.47857" lon="1.65042">
        <ele>12.212</ele>
        <time>2020-06-12T17:50:23Z</time>
      </trkpt>
      <trkpt lat="50.47845" lon="1.6505">
        <ele>12.057</ele>
        <time>2020-06-12T17:50:26Z</time>
      </trkpt>
      <trkpt lat="50.47833" lon="1.65058">
        <ele>12.059</ele>
        <time>2020-06-12T17:50:29Z</time>
      </trkpt>
      <trkpt lat="50.47821" lon="1.65067">
        <ele>12.35</ele>
        <time>2020-06-12T17:50:32Z</time>
      </trkpt>
      <trkpt lat="50.4781" lon="1.65075">
        <ele>12.751</ele>
        <time>2020-06-12T17:50:35Z</time>
      </trkpt>
      <trkpt lat="50.478" lon="1.65083">
        <ele>12.985</ele>
        <time>2020-06-12T17:50:38Z</time>
      </trkpt>
      <trkpt lat="50.4779" lon="1.6509">
        <ele>13.57</ele>
        <time>2020-06-12T17:50:41Z</time>
      </trkpt>
      <trkpt lat="50.47781" lon="1.65094">
        <ele>14.236</ele>
        <time>2020-06-12T17:50:44Z</time>
      </trkpt>
      <trkpt lat="50.47774" lon="1.65098">
        <ele>14.631</ele>
        <time>2020-06-12T17:50:47Z</time>
      </trkpt>
      <trkpt lat="50.47767" lon="1.65102">
        <ele>15.289</ele>
        <time>2020-06-12T17:50:50Z</time>
      </trkpt>
      <trkpt lat="50.47759" lon="1.65107">
        <ele>15.883</ele>
        <time>2020-06-12T17:50:53Z</time>
      </trkpt>
      <trkpt lat="50.47751" lon="1.65113">
        <ele>16.593</ele>
        <time>2020-06-12T17:50:56Z</time>
      </trkpt>
      <trkpt lat="50.47748" lon="1.65115">
        <ele>17.37</ele>
        <time>2020-06-12T17:50:59Z</time>
      </trkpt>
      <trkpt lat="50.47739" lon="1.65121">
        <ele>18.247</ele>
        <time>2020-06-12T17:51:02Z</time>
      </trkpt>
      <trkpt lat="50.47732" lon="1.65127">
        <ele>19.315</ele>
        <time>2020-06-12T17:51:05Z</time>
      </trkpt>
      <trkpt lat="50.47726" lon="1.65132">
        <ele>20.166</ele>
        <time>2020-06-12T17:51:08Z</time>
      </trkpt>
      <trkpt lat="50.47717" lon="1.65141">
        <ele>20.984</ele>
        <time>2020-06-12T17:51:11Z</time>
      </trkpt>
      <trkpt lat="50.4771" lon="1.65148">
        <ele>21.828</ele>
        <time>2020-06-12T17:51:14Z</time>
      </trkpt>
      <trkpt lat="50.47704" lon="1.65157">
        <ele>22.509</ele>
        <time>2020-06-12T17:51:17Z</time>
      </trkpt>
      <trkpt lat="50.47698" lon="1.65167">
        <ele>23.389</ele>
        <time>2020-06-12T17:51:20Z</time>
      </trkpt>
      <trkpt lat="50.47692" lon="1.65176">
        <ele>24.148</ele>
        <time>2020-06-12T17:51:23Z</time>
      </trkpt>
      <trkpt lat="50.47686" lon="1.65185">
        <ele>24.552</ele>
        <time>2020-06-12T17:51:26Z</time>
      </trkpt>
      <trkpt lat="50.47681" lon="1.65193">
        <ele>25.123</ele>
        <time>2020-06-12T17:51:29Z</time>
      </trkpt>
      <trkpt lat="50.47676" lon="1.652">
        <ele>25.366</ele>
        <time>2020-06-12T17:51:32Z</time>
      </trkpt>
      <trkpt lat="50.4767" lon="1.65207">
        <ele>25.668</ele>
        <time>2020-06-12T17:51:35Z</time>
      </trkpt>
      <trkpt lat="50.47666" lon="1.65214">
        <ele>26.17</ele>
        <time>2020-06-12T17:51:38Z</time>
      </trkpt>
      <trkpt lat="50.47661" lon="1.65221">
        <ele>26.638</ele>
        <time>2020-06-12T17:51:41Z</time>
      </trkpt>
      <trkpt lat="50.47656" lon="1.65229">
        <ele>27.401</ele>
        <time>2020-06-12T17:51:44Z</time>
      </trkpt>
      <trkpt lat="50.47651" lon="1.65236">
        <ele>28.676</ele>
        <time>2020-06-12T17:51:47Z</time>
      </trkpt>
      <trkpt lat="50.47646" lon="1.65244">
        <ele>30.093</ele>
        <time>2020-06-12T17:51:50Z</time>
      </trkpt>
      <trkpt lat="50.47641" lon="1.65253">
        <ele>31.265</ele>
        <time>2020-06-12T17:51:53Z</time>
      </trkpt>
      <trkpt lat="50.47636" lon="1.6526">
        <ele>32.851</ele>
        <time>2020-06-12T17:51:56Z</time>
      </trkpt>
      <trkpt lat="50.47632" lon="1.65267">
        <ele>34.49</ele>
        <time>2020-06-12T17:51:59Z</time>
      </trkpt>
      <trkpt lat="50.47627" lon="1.65275">
        <ele>35.585</ele>
        <time>2020-06-12T17:52:02Z</time>
      </trkpt>
      <trkpt lat="50.47622" lon="1.65282">
        <ele>36.719</ele>
        <time>2020-06-12T17:52:05Z</time>
      </trkpt>
      <trkpt lat="50.47617" lon="1.65289">
        <ele>37.372</ele>
        <time>2020-06-12T17:52:08Z</time>
      </trkpt>
      <trkpt lat="50.47612" lon="1.65297">
        <ele>38.14</ele>
        <time>2020-06-12T17:52:11Z</time>
      </trkpt>
      <trkpt lat="50.47607" lon="1.65304">
        <ele>38.727</ele>
        <time>2020-06-12T17:52:14Z</time>
      </trkpt>
      <trkpt lat="50.47602" lon="1.65312">
        <ele>39.024</ele>
        <time>2020-06-12T17:52:17Z</time>
      </trkpt>
      <trkpt lat="50.47598" lon="1.65321">
        <ele>39.723</ele>
        <time>2020-06-12T17:52:20Z</time>
      </trkpt>
      <trkpt lat="50.47593" lon="1.65329">
        <ele>39.931</ele>
        <time>2020-06-12T17:52:23Z</time>
      </trkpt>
      <trkpt lat="50.47587" lon="1.65338">
        <ele>39.872</ele>
        <time>2020-06-12T17:52:26Z</time>
      </trkpt>
      <trkpt lat="50.47581" lon="1.65347">
        <ele>38.752</ele>
        <time>2020-06-12T17:52:29Z</time>
      </trkpt>
      <trkpt lat="50.47575" lon="1.65355">
        <ele>38.584</ele>
        <time>2020-06-12T17:52:32Z</time>
      </trkpt>
      <trkpt lat="50.47569" lon="1.65363">
        <ele>38.105</ele>
        <time>2020-06-12T17:52:35Z</time>
      </trkpt>
      <trkpt lat="50.47564" lon="1.6537">
        <ele>38.128</ele>
        <time>2020-06-12T17:52:38Z</time>
      </trkpt>
      <trkpt lat="50.47558" lon="1.65377">
        <ele>38.486</ele>
        <time>2020-06-12T17:52:41Z</time>
      </trkpt>
      <trkpt lat="50.47551" lon="1.65384">
        <ele>38.475</ele>
        <time>2020-06-12T17:52:44Z</time>
      </trkpt>
      <trkpt lat="50.47543" lon="1.65391">
        <ele>38.651</ele>
        <time>2020-06-12T17:52:47Z</time>
      </trkpt>
      <trkpt lat="50.47535" lon="1.65399">
        <ele>39.497</ele>
        <time>2020-06-12T17:52:50Z</time>
      </trkpt>
      <trkpt lat="50.47527" lon="1.65405">
        <ele>40.028</ele>
        <time>2020-06-12T17:52:53Z</time>
      </trkpt>
      <trkpt lat="50.47519" lon="1.65412">
        <ele>40.433</ele>
        <time>2020-06-12T17:52:56Z</time>
      </trkpt>
      <trkpt lat="50.4751" lon="1.65419">
        <ele>40.599</ele>
        <time>2020-06-12T17:52:59Z</time>
      </trkpt>
      <trkpt lat="50.47502" lon="1.65425">
        <ele>40.806</ele>
        <time>2020-06-12T17:53:02Z</time>
      </trkpt>
      <trkpt lat="50.47493" lon="1.65432">
        <ele>41.194</ele>
        <time>2020-06-12T17:53:05Z</time>
      </trkpt>
      <trkpt lat="50.47484" lon="1.65439">
        <ele>41.354</ele>
        <time>2020-06-12T17:53:08Z</time>
      </trkpt>
      <trkpt lat="50.47475" lon="1.65445">
        <ele>40.882</ele>
        <time>2020-06-12T17:53:11Z</time>
      </trkpt>
      <trkpt lat="50.47457" lon="1.65461">
        <ele>40.855</ele>
        <time>2020-06-12T17:53:14Z</time>
      </trkpt>
      <trkpt lat="50.47448" lon="1.65469">
        <ele>40.77</ele>
        <time>2020-06-12T17:53:17Z</time>
      </trkpt>
      <trkpt lat="50.47437" lon="1.65479">
        <ele>41.288</ele>
        <time>2020-06-12T17:53:20Z</time>
      </trkpt>
      <trkpt lat="50.47427" lon="1.65489">
        <ele>41.179</ele>
        <time>2020-06-12T17:53:23Z</time>
      </trkpt>
      <trkpt lat="50.47417" lon="1.655">
        <ele>40.702</ele>
        <time>2020-06-12T17:53:26Z</time>
      </trkpt>
      <trkpt lat="50.47408" lon="1.65512">
        <ele>40.989</ele>
        <time>2020-06-12T17:53:29Z</time>
      </trkpt>
      <trkpt lat="50.47399" lon="1.65525">
        <ele>41.417</ele>
        <time>2020-06-12T17:53:32Z</time>
      </trkpt>
      <trkpt lat="50.4739" lon="1.65537">
        <ele>41.921</ele>
        <time>2020-06-12T17:53:35Z</time>
      </trkpt>
      <trkpt lat="50.47382" lon="1.65552">
        <ele>42.678</ele>
        <time>2020-06-12T17:53:38Z</time>
      </trkpt>
      <trkpt lat="50.47374" lon="1.65567">
        <ele>42.756</ele>
        <time>2020-06-12T17:53:41Z</time>
      </trkpt>
      <trkpt lat="50.47368" lon="1.6558">
        <ele>42.301</ele>
        <time>2020-06-12T17:53:44Z</time>
      </trkpt>
      <trkpt lat="50.47361" lon="1.65595">
        <ele>41.919</ele>
        <time>2020-06-12T17:53:47Z</time>
      </trkpt>
      <trkpt lat="50.47355" lon="1.65612">
        <ele>42.371</ele>
        <time>2020-06-12T17:53:50Z</time>
      </trkpt>
      <trkpt lat="50.47349" lon="1.6563">
        <ele>42.718</ele>
        <time>2020-06-12T17:53:53Z</time>
      </trkpt>
      <trkpt lat="50.47343" lon="1.65646">
        <ele>42.961</ele>
        <time>2020-06-12T17:53:56Z</time>
      </trkpt>
      <trkpt lat="50.47338" lon="1.65662">
        <ele>42.933</ele>
        <time>2020-06-12T17:53:59Z</time>
      </trkpt>
      <trkpt lat="50.47332" lon="1.65679">
        <ele>42.702</ele>
        <time>2020-06-12T17:54:02Z</time>
      </trkpt>
      <trkpt lat="50.47327" lon="1.65695">
        <ele>42.809</ele>
        <time>2020-06-12T17:54:05Z</time>
      </trkpt>
      <trkpt lat="50.47321" lon="1.65709">
        <ele>42.772</ele>
        <time>2020-06-12T17:54:08Z</time>
      </trkpt>
      <trkpt lat="50.47316" lon="1.65725">
        <ele>43.178</ele>
        <time>2020-06-12T17:54:11Z</time>
      </trkpt>
      <trkpt lat="50.47309" lon="1.65743">
        <ele>43.132</ele>
        <time>2020-06-12T17:54:14Z</time>
      </trkpt>
      <trkpt lat="50.47303" lon="1.65761">
        <ele>42.516</ele>
        <time>2020-06-12T17:54:17Z</time>
      </trkpt>
      <trkpt lat="50.47298" lon="1.65778">
        <ele>42.075</ele>
        <time>2020-06-12T17:54:20Z</time>
      </trkpt>
      <trkpt lat="50.4729" lon="1.65798">
        <ele>41.851</ele>
        <time>2020-06-12T17:54:23Z</time>
      </trkpt>
      <trkpt lat="50.47283" lon="1.6582">
        <ele>41.903</ele>
        <time>2020-06-12T17:54:26Z</time>
      </trkpt>
      <trkpt lat="50.47274" lon="1.6584">
        <ele>41.481</ele>
        <time>2020-06-12T17:54:29Z</time>
      </trkpt>
      <trkpt lat="50.47264" lon="1.65861">
        <ele>41.081</ele>
        <time>2020-06-12T17:54:32Z</time>
      </trkpt>
      <trkpt lat="50.47254" lon="1.65882">
        <ele>40.865</ele>
        <time>2020-06-12T17:54:35Z</time>
      </trkpt>
      <trkpt lat="50.47243" lon="1.65905">
        <ele>40.81</ele>
        <time>2020-06-12T17:54:38Z</time>
      </trkpt>
      <trkpt lat="50.47231" lon="1.65932">
        <ele>41.148</ele>
        <time>2020-06-12T17:54:41Z</time>
      </trkpt>
      <trkpt lat="50.4722" lon="1.65958">
        <ele>41.736</ele>
        <time>2020-06-12T17:54:44Z</time>
      </trkpt>
      <trkpt lat="50.47207" lon="1.65983">
        <ele>42.107</ele>
        <time>2020-06-12T17:54:47Z</time>
      </trkpt>
      <trkpt lat="50.47189" lon="1.66006">
        <ele>42.235</ele>
        <time>2020-06-12T17:54:50Z</time>
      </trkpt>
      <trkpt lat="50.4717" lon="1.66027">
        <ele>42.576</ele>
        <time>2020-06-12T17:54:53Z</time>
      </trkpt>
      <trkpt lat="50.47151" lon="1.66046">
        <ele>42.745</ele>
        <time>2020-06-12T17:54:56Z</time>
      </trkpt>
      <trkpt lat="50.47131" lon="1.66062">
        <ele>42.54</ele>
        <time>2020-06-12T17:54:59Z</time>
      </trkpt>
      <trkpt lat="50.47111" lon="1.66079">
        <ele>42.107</ele>
        <time>2020-06-12T17:55:02Z</time>
      </trkpt>
      <trkpt lat="50.47091" lon="1.661">
        <ele>41.308</ele>
        <time>2020-06-12T17:55:05Z</time>
      </trkpt>
      <trkpt lat="50.47072" lon="1.66124">
        <ele>41.025</ele>
        <time>2020-06-12T17:55:08Z</time>
      </trkpt>
      <trkpt lat="50.47055" lon="1.66147">
        <ele>40.618</ele>
        <time>2020-06-12T17:55:11Z</time>
      </trkpt>
      <trkpt lat="50.4704" lon="1.66168">
        <ele>40.052</ele>
        <time>2020-06-12T17:55:14Z</time>
      </trkpt>
      <trkpt lat="50.47028" lon="1.66187">
        <ele>40.067</ele>
        <time>2020-06-12T17:55:17Z</time>
      </trkpt>
      <trkpt lat="50.47015" lon="1.66206">
        <ele>39.757</ele>
        <time>2020-06-12T17:55:20Z</time>
      </trkpt>
      <trkpt lat="50.47002" lon="1.66223">
        <ele>39.542</ele>
        <time>2020-06-12T17:55:23Z</time>
      </trkpt>
      <trkpt lat="50.46989" lon="1.6624">
        <ele>39.217</ele>
        <time>2020-06-12T17:55:26Z</time>
      </trkpt>
      <trkpt lat="50.46977" lon="1.66257">
        <ele>39.585</ele>
        <time>2020-06-12T17:55:29Z</time>
      </trkpt>
      <trkpt lat="50.46967" lon="1.6627">
        <ele>39.871</ele>
        <time>2020-06-12T17:55:32Z</time>
      </trkpt>
      <trkpt lat="50.46955" lon="1.66286">
        <ele>40.006</ele>
        <time>2020-06-12T17:55:35Z</time>
      </trkpt>
      <trkpt lat="50.46943" lon="1.66306">
        <ele>39.623</ele>
        <time>2020-06-12T17:55:38Z</time>
      </trkpt>
      <trkpt lat="50.46931" lon="1.66327">
        <ele>39.155</ele>
        <time>2020-06-12T17:55:41Z</time>
      </trkpt>
      <trkpt lat="50.46918" lon="1.66343">
        <ele>38.649</ele>
        <time>2020-06-12T17:55:44Z</time>
      </trkpt>
      <trkpt lat="50.46902" lon="1.66351">
        <ele>38.048</ele>
        <time>2020-06-12T17:55:47Z</time>
      </trkpt>
      <trkpt lat="50.46885" lon="1.66361">
        <ele>36.893</ele>
        <time>2020-06-12T17:55:50Z</time>
      </trkpt>
      <trkpt lat="50.46869" lon="1.66366">
        <ele>36.272</ele>
        <time>2020-06-12T17:55:53Z</time>
      </trkpt>
      <trkpt lat="50.46855" lon="1.6637">
        <ele>35.211</ele>
        <time>2020-06-12T17:55:56Z</time>
      </trkpt>
      <trkpt lat="50.46841" lon="1.66362">
        <ele>34.825</ele>
        <time>2020-06-12T17:55:59Z</time>
      </trkpt>
      <trkpt lat="50.46828" lon="1.66354">
        <ele>34.92</ele>
        <time>2020-06-12T17:56:02Z</time>
      </trkpt>
      <trkpt lat="50.46815" lon="1.66349">
        <ele>35.975</ele>
        <time>2020-06-12T17:56:05Z</time>
      </trkpt>
      <trkpt lat="50.46802" lon="1.66344">
        <ele>36.986</ele>
        <time>2020-06-12T17:56:08Z</time>
      </trkpt>
      <trkpt lat="50.4679" lon="1.66337">
        <ele>37.96</ele>
        <time>2020-06-12T17:56:11Z</time>
      </trkpt>
      <trkpt lat="50.46779" lon="1.66332">
        <ele>38.707</ele>
        <time>2020-06-12T17:56:14Z</time>
      </trkpt>
      <trkpt lat="50.46767" lon="1.66327">
        <ele>38.778</ele>
        <time>2020-06-12T17:56:17Z</time>
      </trkpt>
      <trkpt lat="50.46752" lon="1.66323">
        <ele>39.289</ele>
        <time>2020-06-12T17:56:20Z</time>
      </trkpt>
      <trkpt lat="50.46738" lon="1.66319">
        <ele>39.519</ele>
        <time>2020-06-12T17:56:23Z</time>
      </trkpt>
      <trkpt lat="50.46722" lon="1.66317">
        <ele>39.353</ele>
        <time>2020-06-12T17:56:26Z</time>
      </trkpt>
      <trkpt lat="50.46709" lon="1.66328">
        <ele>39.344</ele>
        <time>2020-06-12T17:56:29Z</time>
      </trkpt>
      <trkpt lat="50.46699" lon="1.66349">
        <ele>40.115</ele>
        <time>2020-06-12T17:56:32Z</time>
      </trkpt>
      <trkpt lat="50.4669" lon="1.66368">
        <ele>40.758</ele>
        <time>2020-06-12T17:56:35Z</time>
      </trkpt>
      <trkpt lat="50.46679" lon="1.66383">
        <ele>41.098</ele>
        <time>2020-06-12T17:56:38Z</time>
      </trkpt>
      <trkpt lat="50.46669" lon="1.66397">
        <ele>41.405</ele>
        <time>2020-06-12T17:56:41Z</time>
      </trkpt>
      <trkpt lat="50.46656" lon="1.66404">
        <ele>41.175</ele>
        <time>2020-06-12T17:56:44Z</time>
      </trkpt>
      <trkpt lat="50.46642" lon="1.66406">
        <ele>40.553</ele>
        <time>2020-06-12T17:56:47Z</time>
      </trkpt>
      <trkpt lat="50.46629" lon="1.6641">
        <ele>39.334</ele>
        <time>2020-06-12T17:56:50Z</time>
      </trkpt>
      <trkpt lat="50.46613" lon="1.66415">
        <ele>38.979</ele>
        <time>2020-06-12T17:56:53Z</time>
      </trkpt>
      <trkpt lat="50.46594" lon="1.66421">
        <ele>38.922</ele>
        <time>2020-06-12T17:56:56Z</time>
      </trkpt>
      <trkpt lat="50.46572" lon="1.66426">
        <ele>38.429</ele>
        <time>2020-06-12T17:56:59Z</time>
      </trkpt>
      <trkpt lat="50.46547" lon="1.66429">
        <ele>37.4</ele>
        <time>2020-06-12T17:57:02Z</time>
      </trkpt>
      <trkpt lat="50.46521" lon="1.66433">
        <ele>35.27</ele>
        <time>2020-06-12T17:57:05Z</time>
      </trkpt>
      <trkpt lat="50.46495" lon="1.66437">
        <ele>34.017</ele>
        <time>2020-06-12T17:57:08Z</time>
      </trkpt>
      <trkpt lat="50.46469" lon="1.66442">
        <ele>32.5</ele>
        <time>2020-06-12T17:57:11Z</time>
      </trkpt>
      <trkpt lat="50.46445" lon="1.66446">
        <ele>31.049</ele>
        <time>2020-06-12T17:57:14Z</time>
      </trkpt>
      <trkpt lat="50.46422" lon="1.6645">
        <ele>30.005</ele>
        <time>2020-06-12T17:57:17Z</time>
      </trkpt>
      <trkpt lat="50.464" lon="1.66454">
        <ele>29.282</ele>
        <time>2020-06-12T17:57:20Z</time>
      </trkpt>
      <trkpt lat="50.46381" lon="1.66459">
        <ele>28.53</ele>
        <time>2020-06-12T17:57:23Z</time>
      </trkpt>
      <trkpt lat="50.46361" lon="1.66466">
        <ele>27.819</ele>
        <time>2020-06-12T17:57:26Z</time>
      </trkpt>
      <trkpt lat="50.46341" lon="1.66468">
        <ele>27.532</ele>
        <time>2020-06-12T17:57:29Z</time>
      </trkpt>
      <trkpt lat="50.46324" lon="1.66473">
        <ele>27.271</ele>
        <time>2020-06-12T17:57:32Z</time>
      </trkpt>
      <trkpt lat="50.46307" lon="1.66477">
        <ele>26.759</ele>
        <time>2020-06-12T17:57:35Z</time>
      </trkpt>
      <trkpt lat="50.46287" lon="1.66482">
        <ele>26.276</ele>
        <time>2020-06-12T17:57:38Z</time>
      </trkpt>
      <trkpt lat="50.46267" lon="1.66487">
        <ele>25.668</ele>
        <time>2020-06-12T17:57:41Z</time>
      </trkpt>
      <trkpt lat="50.46248" lon="1.66493">
        <ele>25.004</ele>
        <time>2020-06-12T17:57:44Z</time>
      </trkpt>
      <trkpt lat="50.46226" lon="1.66497">
        <ele>24.753</ele>
        <time>2020-06-12T17:57:47Z</time>
      </trkpt>
      <trkpt lat="50.46204" lon="1.66497">
        <ele>25.391</ele>
        <time>2020-06-12T17:57:50Z</time>
      </trkpt>
      <trkpt lat="50.46183" lon="1.66495">
        <ele>25.423</ele>
        <time>2020-06-12T17:57:53Z</time>
      </trkpt>
      <trkpt lat="50.46165" lon="1.66486">
        <ele>25.135</ele>
        <time>2020-06-12T17:57:56Z</time>
      </trkpt>
      <trkpt lat="50.46149" lon="1.66475">
        <ele>24.909</ele>
        <time>2020-06-12T17:57:59Z</time>
      </trkpt>
      <trkpt lat="50.46135" lon="1.66461">
        <ele>24.937</ele>
        <time>2020-06-12T17:58:02Z</time>
      </trkpt>
      <trkpt lat="50.4612" lon="1.66449">
        <ele>24.547</ele>
        <time>2020-06-12T17:58:05Z</time>
      </trkpt>
      <trkpt lat="50.46105" lon="1.66442">
        <ele>24.873</ele>
        <time>2020-06-12T17:58:08Z</time>
      </trkpt>
      <trkpt lat="50.46089" lon="1.6644">
        <ele>24.37</ele>
        <time>2020-06-12T17:58:11Z</time>
      </trkpt>
      <trkpt lat="50.46073" lon="1.66437">
        <ele>23.746</ele>
        <time>2020-06-12T17:58:14Z</time>
      </trkpt>
      <trkpt lat="50.46054" lon="1.66431">
        <ele>24.077</ele>
        <time>2020-06-12T17:58:17Z</time>
      </trkpt>
      <trkpt lat="50.46036" lon="1.66426">
        <ele>24.498</ele>
        <time>2020-06-12T17:58:20Z</time>
      </trkpt>
      <trkpt lat="50.46018" lon="1.66425">
        <ele>24.874</ele>
        <time>2020-06-12T17:58:23Z</time>
      </trkpt>
      <trkpt lat="50.45998" lon="1.66426">
        <ele>25.053</ele>
        <time>2020-06-12T17:58:26Z</time>
      </trkpt>
      <trkpt lat="50.45979" lon="1.6643">
        <ele>24.968</ele>
        <time>2020-06-12T17:58:29Z</time>
      </trkpt>
      <trkpt lat="50.45961" lon="1.66431">
        <ele>24.567</ele>
        <time>2020-06-12T17:58:32Z</time>
      </trkpt>
      <trkpt lat="50.45945" lon="1.66435">
        <ele>23.965</ele>
        <time>2020-06-12T17:58:35Z</time>
      </trkpt>
      <trkpt lat="50.45925" lon="1.66438">
        <ele>23.82</ele>
        <time>2020-06-12T17:58:38Z</time>
      </trkpt>
      <trkpt lat="50.45904" lon="1.66442">
        <ele>23.568</ele>
        <time>2020-06-12T17:58:41Z</time>
      </trkpt>
      <trkpt lat="50.45879" lon="1.6644">
        <ele>23.362</ele>
        <time>2020-06-12T17:58:44Z</time>
      </trkpt>
      <trkpt lat="50.45852" lon="1.66438">
        <ele>22.042</ele>
        <time>2020-06-12T17:58:47Z</time>
      </trkpt>
      <trkpt lat="50.45824" lon="1.66434">
        <ele>21.721</ele>
        <time>2020-06-12T17:58:50Z</time>
      </trkpt>
      <trkpt lat="50.45796" lon="1.66424">
        <ele>21.454</ele>
        <time>2020-06-12T17:58:53Z</time>
      </trkpt>
      <trkpt lat="50.45772" lon="1.66418">
        <ele>21.206</ele>
        <time>2020-06-12T17:58:56Z</time>
      </trkpt>
      <trkpt lat="50.45748" lon="1.66411">
        <ele>20.77</ele>
        <time>2020-06-12T17:58:59Z</time>
      </trkpt>
      <trkpt lat="50.45724" lon="1.66401">
        <ele>20.768</ele>
        <time>2020-06-12T17:59:02Z</time>
      </trkpt>
      <trkpt lat="50.45702" lon="1.66394">
        <ele>20.334</ele>
        <time>2020-06-12T17:59:05Z</time>
      </trkpt>
      <trkpt lat="50.45683" lon="1.6639">
        <ele>20.119</ele>
        <time>2020-06-12T17:59:08Z</time>
      </trkpt>
      <trkpt lat="50.45666" lon="1.6639">
        <ele>20.21</ele>
        <time>2020-06-12T17:59:11Z</time>
      </trkpt>
      <trkpt lat="50.45646" lon="1.66391">
        <ele>19.922</ele>
        <time>2020-06-12T17:59:14Z</time>
      </trkpt>
      <trkpt lat="50.45626" lon="1.6639">
        <ele>19.935</ele>
        <time>2020-06-12T17:59:17Z</time>
      </trkpt>
      <trkpt lat="50.45606" lon="1.6639">
        <ele>20.266</ele>
        <time>2020-06-12T17:59:20Z</time>
      </trkpt>
      <trkpt lat="50.45587" lon="1.66391">
        <ele>19.766</ele>
        <time>2020-06-12T17:59:23Z</time>
      </trkpt>
      <trkpt lat="50.45569" lon="1.66389">
        <ele>19.282</ele>
        <time>2020-06-12T17:59:26Z</time>
      </trkpt>
      <trkpt lat="50.45551" lon="1.66386">
        <ele>18.892</ele>
        <time>2020-06-12T17:59:29Z</time>
      </trkpt>
      <trkpt lat="50.45531" lon="1.66384">
        <ele>18.757</ele>
        <time>2020-06-12T17:59:32Z</time>
      </trkpt>
      <trkpt lat="50.45513" lon="1.66379">
        <ele>18.481</ele>
        <time>2020-06-12T17:59:35Z</time>
      </trkpt>
      <trkpt lat="50.45496" lon="1.66377">
        <ele>17.701</ele>
        <time>2020-06-12T17:59:38Z</time>
      </trkpt>
      <trkpt lat="50.45478" lon="1.66373">
        <ele>16.429</ele>
        <time>2020-06-12T17:59:41Z</time>
      </trkpt>
      <trkpt lat="50.4546" lon="1.6637">
        <ele>15.639</ele>
        <time>2020-06-12T17:59:44Z</time>
      </trkpt>
      <trkpt lat="50.45441" lon="1.66368">
        <ele>15.228</ele>
        <time>2020-06-12T17:59:47Z</time>
      </trkpt>
      <trkpt lat="50.45423" lon="1.66367">
        <ele>14.36</ele>
        <time>2020-06-12T17:59:50Z</time>
      </trkpt>
      <trkpt lat="50.45405" lon="1.6637">
        <ele>13.553</ele>
        <time>2020-06-12T17:59:53Z</time>
      </trkpt>
      <trkpt lat="50.45386" lon="1.66374">
        <ele>13.156</ele>
        <time>2020-06-12T17:59:56Z</time>
      </trkpt>
      <trkpt lat="50.45367" lon="1.66378">
        <ele>13.208</ele>
        <time>2020-06-12T17:59:59Z</time>
      </trkpt>
      <trkpt lat="50.45348" lon="1.66381">
        <ele>13.037</ele>
        <time>2020-06-12T18:00:02Z</time>
      </trkpt>
      <trkpt lat="50.4533" lon="1.66385">
        <ele>13.182</ele>
        <time>2020-06-12T18:00:05Z</time>
      </trkpt>
      <trkpt lat="50.45313" lon="1.6639">
        <ele>13.181</ele>
        <time>2020-06-12T18:00:08Z</time>
      </trkpt>
      <trkpt lat="50.45297" lon="1.66395">
        <ele>13.685</ele>
        <time>2020-06-12T18:00:11Z</time>
      </trkpt>
      <trkpt lat="50.45281" lon="1.66401">
        <ele>14.426</ele>
        <time>2020-06-12T18:00:14Z</time>
      </trkpt>
      <trkpt lat="50.45265" lon="1.66407">
        <ele>15.005</ele>
        <time>2020-06-12T18:00:17Z</time>
      </trkpt>
      <trkpt lat="50.45251" lon="1.66412">
        <ele>15.199</ele>
        <time>2020-06-12T18:00:20Z</time>
      </trkpt>
      <trkpt lat="50.45236" lon="1.66417">
        <ele>15.586</ele>
        <time>2020-06-12T18:00:23Z</time>
      </trkpt>
      <trkpt lat="50.45223" lon="1.66423">
        <ele>15.74</ele>
        <time>2020-06-12T18:00:26Z</time>
      </trkpt>
      <trkpt lat="50.4521" lon="1.66428">
        <ele>15.398</ele>
        <time>2020-06-12T18:00:29Z</time>
      </trkpt>
      <trkpt lat="50.45197" lon="1.66433">
        <ele>15.27</ele>
        <time>2020-06-12T18:00:32Z</time>
      </trkpt>
      <trkpt lat="50.45183" lon="1.6644">
        <ele>15.178</ele>
        <time>2020-06-12T18:00:35Z</time>
      </trkpt>
      <trkpt lat="50.45168" lon="1.66448">
        <ele>14.964</ele>
        <time>2020-06-12T18:00:38Z</time>
      </trkpt>
      <trkpt lat="50.45154" lon="1.66458">
        <ele>15.048</ele>
        <time>2020-06-12T18:00:41Z</time>
      </trkpt>
      <trkpt lat="50.4514" lon="1.66473">
        <ele>15.178</ele>
        <time>2020-06-12T18:00:44Z</time>
      </trkpt>
      <trkpt lat="50.45126" lon="1.66489">
        <ele>15.477</ele>
        <time>2020-06-12T18:00:47.001Z</time>
      </trkpt>
      <trkpt lat="50.45113" lon="1.66504">
        <ele>15.207</ele>
        <time>2020-06-12T18:00:50.001Z</time>
      </trkpt>
      <trkpt lat="50.451" lon="1.66518">
        <ele>15.379</ele>
        <time>2020-06-12T18:00:53.001Z</time>
      </trkpt>
      <trkpt lat="50.45087" lon="1.66532">
        <ele>14.913</ele>
        <time>2020-06-12T18:00:56.001Z</time>
      </trkpt>
      <trkpt lat="50.45073" lon="1.66547">
        <ele>15.07</ele>
        <time>2020-06-12T18:00:59.001Z</time>
      </trkpt>
      <trkpt lat="50.45059" lon="1.66562">
        <ele>15.422</ele>
        <time>2020-06-12T18:01:02Z</time>
      </trkpt>
      <trkpt lat="50.45044" lon="1.66574">
        <ele>15.493</ele>
        <time>2020-06-12T18:01:05.001Z</time>
      </trkpt>
      <trkpt lat="50.45031" lon="1.66583">
        <ele>15.596</ele>
        <time>2020-06-12T18:01:08.001Z</time>
      </trkpt>
      <trkpt lat="50.45016" lon="1.6659">
        <ele>16.009</ele>
        <time>2020-06-12T18:01:11.001Z</time>
      </trkpt>
      <trkpt lat="50.45002" lon="1.66598">
        <ele>16.382</ele>
        <time>2020-06-12T18:01:14.001Z</time>
      </trkpt>
      <trkpt lat="50.44989" lon="1.66605">
        <ele>16.834</ele>
        <time>2020-06-12T18:01:17.001Z</time>
      </trkpt>
      <trkpt lat="50.44976" lon="1.6661">
        <ele>17.097</ele>
        <time>2020-06-12T18:01:20.001Z</time>
      </trkpt>
      <trkpt lat="50.44963" lon="1.66617">
        <ele>17.275</ele>
        <time>2020-06-12T18:01:23.001Z</time>
      </trkpt>
      <trkpt lat="50.44951" lon="1.66623">
        <ele>17.684</ele>
        <time>2020-06-12T18:01:26.001Z</time>
      </trkpt>
      <trkpt lat="50.44939" lon="1.6663">
        <ele>18.177</ele>
        <time>2020-06-12T18:01:29.001Z</time>
      </trkpt>
      <trkpt lat="50.44925" lon="1.66637">
        <ele>18.905</ele>
        <time>2020-06-12T18:01:32.001Z</time>
      </trkpt>
      <trkpt lat="50.44912" lon="1.66645">
        <ele>19.315</ele>
        <time>2020-06-12T18:01:35.001Z</time>
      </trkpt>
      <trkpt lat="50.44899" lon="1.66652">
        <ele>20.208</ele>
        <time>2020-06-12T18:01:38.001Z</time>
      </trkpt>
      <trkpt lat="50.44885" lon="1.6666">
        <ele>20.982</ele>
        <time>2020-06-12T18:01:41.001Z</time>
      </trkpt>
      <trkpt lat="50.44872" lon="1.66668">
        <ele>21.766</ele>
        <time>2020-06-12T18:01:44.001Z</time>
      </trkpt>
      <trkpt lat="50.44858" lon="1.66676">
        <ele>22.551</ele>
        <time>2020-06-12T18:01:47.001Z</time>
      </trkpt>
      <trkpt lat="50.44844" lon="1.66682">
        <ele>22.842</ele>
        <time>2020-06-12T18:01:50.001Z</time>
      </trkpt>
      <trkpt lat="50.44829" lon="1.66691">
        <ele>22.622</ele>
        <time>2020-06-12T18:01:53.001Z</time>
      </trkpt>
      <trkpt lat="50.44813" lon="1.66698">
        <ele>22.349</ele>
        <time>2020-06-12T18:01:56.001Z</time>
      </trkpt>
      <trkpt lat="50.44798" lon="1.66706">
        <ele>21.393</ele>
        <time>2020-06-12T18:01:59.001Z</time>
      </trkpt>
      <trkpt lat="50.44782" lon="1.66712">
        <ele>20.585</ele>
        <time>2020-06-12T18:02:02Z</time>
      </trkpt>
      <trkpt lat="50.44766" lon="1.66717">
        <ele>20.276</ele>
        <time>2020-06-12T18:02:05.001Z</time>
      </trkpt>
      <trkpt lat="50.4475" lon="1.6672">
        <ele>19.911</ele>
        <time>2020-06-12T18:02:08.001Z</time>
      </trkpt>
      <trkpt lat="50.44734" lon="1.66722">
        <ele>19.433</ele>
        <time>2020-06-12T18:02:11.001Z</time>
      </trkpt>
      <trkpt lat="50.44717" lon="1.66722">
        <ele>19.005</ele>
        <time>2020-06-12T18:02:14.001Z</time>
      </trkpt>
      <trkpt lat="50.44701" lon="1.66722">
        <ele>18.676</ele>
        <time>2020-06-12T18:02:17.001Z</time>
      </trkpt>
      <trkpt lat="50.44686" lon="1.66721">
        <ele>18.303</ele>
        <time>2020-06-12T18:02:20.001Z</time>
      </trkpt>
      <trkpt lat="50.44671" lon="1.66721">
        <ele>17.684</ele>
        <time>2020-06-12T18:02:23.001Z</time>
      </trkpt>
      <trkpt lat="50.44655" lon="1.66721">
        <ele>17.523</ele>
        <time>2020-06-12T18:02:26.001Z</time>
      </trkpt>
      <trkpt lat="50.4464" lon="1.66721">
        <ele>17.593</ele>
        <time>2020-06-12T18:02:29.001Z</time>
      </trkpt>
      <trkpt lat="50.44625" lon="1.66721">
        <ele>17.767</ele>
        <time>2020-06-12T18:02:32.001Z</time>
      </trkpt>
      <trkpt lat="50.4461" lon="1.66721">
        <ele>17.984</ele>
        <time>2020-06-12T18:02:35.001Z</time>
      </trkpt>
      <trkpt lat="50.44597" lon="1.66722">
        <ele>18.088</ele>
        <time>2020-06-12T18:02:38.001Z</time>
      </trkpt>
      <trkpt lat="50.44584" lon="1.66723">
        <ele>17.902</ele>
        <time>2020-06-12T18:02:41.001Z</time>
      </trkpt>
      <trkpt lat="50.44571" lon="1.66724">
        <ele>17.923</ele>
        <time>2020-06-12T18:02:44.001Z</time>
      </trkpt>
      <trkpt lat="50.44557" lon="1.66726">
        <ele>17.559</ele>
        <time>2020-06-12T18:02:47.001Z</time>
      </trkpt>
      <trkpt lat="50.44543" lon="1.66727">
        <ele>17.799</ele>
        <time>2020-06-12T18:02:50.001Z</time>
      </trkpt>
      <trkpt lat="50.4453" lon="1.66731">
        <ele>18.285</ele>
        <time>2020-06-12T18:02:53.001Z</time>
      </trkpt>
      <trkpt lat="50.44516" lon="1.66733">
        <ele>18.68</ele>
        <time>2020-06-12T18:02:56.001Z</time>
      </trkpt>
      <trkpt lat="50.44502" lon="1.66736">
        <ele>19.306</ele>
        <time>2020-06-12T18:02:59.001Z</time>
      </trkpt>
      <trkpt lat="50.44489" lon="1.66736">
        <ele>19.659</ele>
        <time>2020-06-12T18:03:02Z</time>
      </trkpt>
      <trkpt lat="50.44475" lon="1.66739">
        <ele>19.651</ele>
        <time>2020-06-12T18:03:05.001Z</time>
      </trkpt>
      <trkpt lat="50.44461" lon="1.66741">
        <ele>19.614</ele>
        <time>2020-06-12T18:03:08.001Z</time>
      </trkpt>
      <trkpt lat="50.44446" lon="1.66744">
        <ele>19.742</ele>
        <time>2020-06-12T18:03:11.001Z</time>
      </trkpt>
      <trkpt lat="50.44432" lon="1.66746">
        <ele>20.121</ele>
        <time>2020-06-12T18:03:14.001Z</time>
      </trkpt>
      <trkpt lat="50.44417" lon="1.66749">
        <ele>20.218</ele>
        <time>2020-06-12T18:03:17.001Z</time>
      </trkpt>
      <trkpt lat="50.44405" lon="1.66751">
        <ele>19.81</ele>
        <time>2020-06-12T18:03:20.001Z</time>
      </trkpt>
      <trkpt lat="50.44392" lon="1.66754">
        <ele>19.5</ele>
        <time>2020-06-12T18:03:23.001Z</time>
      </trkpt>
      <trkpt lat="50.44378" lon="1.66755">
        <ele>19.81</ele>
        <time>2020-06-12T18:03:26.001Z</time>
      </trkpt>
      <trkpt lat="50.44363" lon="1.66757">
        <ele>19.779</ele>
        <time>2020-06-12T18:03:29.001Z</time>
      </trkpt>
      <trkpt lat="50.44348" lon="1.6676">
        <ele>19.984</ele>
        <time>2020-06-12T18:03:32.001Z</time>
      </trkpt>
      <trkpt lat="50.44333" lon="1.66763">
        <ele>20.298</ele>
        <time>2020-06-12T18:03:35.001Z</time>
      </trkpt>
      <trkpt lat="50.44317" lon="1.66766">
        <ele>20.736</ele>
        <time>2020-06-12T18:03:38.001Z</time>
      </trkpt>
      <trkpt lat="50.44301" lon="1.66767">
        <ele>20.141</ele>
        <time>2020-06-12T18:03:41.001Z</time>
      </trkpt>
      <trkpt lat="50.44285" lon="1.66769">
        <ele>18.557</ele>
        <time>2020-06-12T18:03:44.001Z</time>
      </trkpt>
      <trkpt lat="50.44269" lon="1.66773">
        <ele>18.193</ele>
        <time>2020-06-12T18:03:47.001Z</time>
      </trkpt>
      <trkpt lat="50.44251" lon="1.66775">
        <ele>17.729</ele>
        <time>2020-06-12T18:03:50.001Z</time>
      </trkpt>
      <trkpt lat="50.44234" lon="1.66773">
        <ele>17.037</ele>
        <time>2020-06-12T18:03:53.001Z</time>
      </trkpt>
      <trkpt lat="50.44215" lon="1.66763">
        <ele>16.533</ele>
        <time>2020-06-12T18:03:56.001Z</time>
      </trkpt>
      <trkpt lat="50.44198" lon="1.66748">
        <ele>16.131</ele>
        <time>2020-06-12T18:03:59.001Z</time>
      </trkpt>
      <trkpt lat="50.4418" lon="1.66729">
        <ele>16.032</ele>
        <time>2020-06-12T18:04:02Z</time>
      </trkpt>
      <trkpt lat="50.44164" lon="1.66706">
        <ele>15.942</ele>
        <time>2020-06-12T18:04:05.001Z</time>
      </trkpt>
      <trkpt lat="50.44147" lon="1.66684">
        <ele>15.486</ele>
        <time>2020-06-12T18:04:08.001Z</time>
      </trkpt>
      <trkpt lat="50.44131" lon="1.66662">
        <ele>15.159</ele>
        <time>2020-06-12T18:04:11.001Z</time>
      </trkpt>
      <trkpt lat="50.44115" lon="1.6664">
        <ele>14.781</ele>
        <time>2020-06-12T18:04:14.001Z</time>
      </trkpt>
      <trkpt lat="50.441" lon="1.66617">
        <ele>14.184</ele>
        <time>2020-06-12T18:04:17.001Z</time>
      </trkpt>
      <trkpt lat="50.44084" lon="1.66593">
        <ele>13.672</ele>
        <time>2020-06-12T18:04:20.001Z</time>
      </trkpt>
      <trkpt lat="50.44069" lon="1.66567">
        <ele>13.447</ele>
        <time>2020-06-12T18:04:23.001Z</time>
      </trkpt>
      <trkpt lat="50.44056" lon="1.66543">
        <ele>13.355</ele>
        <time>2020-06-12T18:04:26.001Z</time>
      </trkpt>
      <trkpt lat="50.44042" lon="1.66519">
        <ele>13.588</ele>
        <time>2020-06-12T18:04:29.001Z</time>
      </trkpt>
      <trkpt lat="50.44029" lon="1.66497">
        <ele>13.801</ele>
        <time>2020-06-12T18:04:32.001Z</time>
      </trkpt>
      <trkpt lat="50.44014" lon="1.6648">
        <ele>13.996</ele>
        <time>2020-06-12T18:04:35.001Z</time>
      </trkpt>
      <trkpt lat="50.43999" lon="1.66462">
        <ele>13.603</ele>
        <time>2020-06-12T18:04:38.001Z</time>
      </trkpt>
      <trkpt lat="50.43986" lon="1.66439">
        <ele>13.498</ele>
        <time>2020-06-12T18:04:41.001Z</time>
      </trkpt>
      <trkpt lat="50.43976" lon="1.66416">
        <ele>13.603</ele>
        <time>2020-06-12T18:04:44.001Z</time>
      </trkpt>
      <trkpt lat="50.43967" lon="1.66396">
        <ele>13.586</ele>
        <time>2020-06-12T18:04:47.001Z</time>
      </trkpt>
      <trkpt lat="50.4396" lon="1.66379">
        <ele>13.118</ele>
        <time>2020-06-12T18:04:50.001Z</time>
      </trkpt>
      <trkpt lat="50.4395" lon="1.66362">
        <ele>13.014</ele>
        <time>2020-06-12T18:04:53.001Z</time>
      </trkpt>
      <trkpt lat="50.4394" lon="1.66348">
        <ele>12.928</ele>
        <time>2020-06-12T18:04:56.001Z</time>
      </trkpt>
      <trkpt lat="50.43931" lon="1.66334">
        <ele>13.089</ele>
        <time>2020-06-12T18:04:59.001Z</time>
      </trkpt>
      <trkpt lat="50.43921" lon="1.66322">
        <ele>13.493</ele>
        <time>2020-06-12T18:05:02Z</time>
      </trkpt>
      <trkpt lat="50.43912" lon="1.6631">
        <ele>14.268</ele>
        <time>2020-06-12T18:05:05.001Z</time>
      </trkpt>
      <trkpt lat="50.43903" lon="1.663">
        <ele>14.779</ele>
        <time>2020-06-12T18:05:08.001Z</time>
      </trkpt>
      <trkpt lat="50.43895" lon="1.66292">
        <ele>15.185</ele>
        <time>2020-06-12T18:05:11.001Z</time>
      </trkpt>
      <trkpt lat="50.43886" lon="1.66283">
        <ele>16.143</ele>
        <time>2020-06-12T18:05:14.001Z</time>
      </trkpt>
      <trkpt lat="50.43877" lon="1.66273">
        <ele>16.744</ele>
        <time>2020-06-12T18:05:17.001Z</time>
      </trkpt>
      <trkpt lat="50.43868" lon="1.66263">
        <ele>17.079</ele>
        <time>2020-06-12T18:05:20.001Z</time>
      </trkpt>
      <trkpt lat="50.43859" lon="1.66254">
        <ele>17.726</ele>
        <time>2020-06-12T18:05:23.001Z</time>
      </trkpt>
      <trkpt lat="50.43851" lon="1.66241">
        <ele>18.016</ele>
        <time>2020-06-12T18:05:26.001Z</time>
      </trkpt>
      <trkpt lat="50.4384" lon="1.66229">
        <ele>18.188</ele>
        <time>2020-06-12T18:05:29.001Z</time>
      </trkpt>
      <trkpt lat="50.4383" lon="1.66215">
        <ele>18.371</ele>
        <time>2020-06-12T18:05:32.001Z</time>
      </trkpt>
      <trkpt lat="50.43819" lon="1.66203">
        <ele>17.873</ele>
        <time>2020-06-12T18:05:35.001Z</time>
      </trkpt>
      <trkpt lat="50.43808" lon="1.66191">
        <ele>17.246</ele>
        <time>2020-06-12T18:05:38.001Z</time>
      </trkpt>
      <trkpt lat="50.43796" lon="1.66178">
        <ele>17.021</ele>
        <time>2020-06-12T18:05:41.001Z</time>
      </trkpt>
      <trkpt lat="50.43783" lon="1.66165">
        <ele>16.578</ele>
        <time>2020-06-12T18:05:44.001Z</time>
      </trkpt>
      <trkpt lat="50.43769" lon="1.66152">
        <ele>16.294</ele>
        <time>2020-06-12T18:05:47.001Z</time>
      </trkpt>
      <trkpt lat="50.43753" lon="1.66135">
        <ele>16.367</ele>
        <time>2020-06-12T18:05:50.001Z</time>
      </trkpt>
      <trkpt lat="50.43737" lon="1.66115">
        <ele>16.222</ele>
        <time>2020-06-12T18:05:53.001Z</time>
      </trkpt>
      <trkpt lat="50.43725" lon="1.6609">
        <ele>15.25</ele>
        <time>2020-06-12T18:05:56.001Z</time>
      </trkpt>
      <trkpt lat="50.43717" lon="1.66063">
        <ele>15.175</ele>
        <time>2020-06-12T18:05:59.001Z</time>
      </trkpt>
      <trkpt lat="50.43711" lon="1.66034">
        <ele>15.989</ele>
        <time>2020-06-12T18:06:02Z</time>
      </trkpt>
      <trkpt lat="50.43705" lon="1.66004">
        <ele>17.077</ele>
        <time>2020-06-12T18:06:05.001Z</time>
      </trkpt>
      <trkpt lat="50.437" lon="1.65977">
        <ele>17.181</ele>
        <time>2020-06-12T18:06:08.001Z</time>
      </trkpt>
      <trkpt lat="50.43695" lon="1.65948">
        <ele>17.516</ele>
        <time>2020-06-12T18:06:11.001Z</time>
      </trkpt>
      <trkpt lat="50.43689" lon="1.65919">
        <ele>17.705</ele>
        <time>2020-06-12T18:06:14.001Z</time>
      </trkpt>
      <trkpt lat="50.43684" lon="1.6589">
        <ele>17.58</ele>
        <time>2020-06-12T18:06:17.001Z</time>
      </trkpt>
      <trkpt lat="50.43678" lon="1.65862">
        <ele>17.531</ele>
        <time>2020-06-12T18:06:20.001Z</time>
      </trkpt>
      <trkpt lat="50.43675" lon="1.65833">
        <ele>18.075</ele>
        <time>2020-06-12T18:06:23.001Z</time>
      </trkpt>
      <trkpt lat="50.4367" lon="1.65799">
        <ele>18.555</ele>
        <time>2020-06-12T18:06:26.001Z</time>
      </trkpt>
      <trkpt lat="50.43667" lon="1.65764">
        <ele>18.602</ele>
        <time>2020-06-12T18:06:29.001Z</time>
      </trkpt>
      <trkpt lat="50.43666" lon="1.65729">
        <ele>17.945</ele>
        <time>2020-06-12T18:06:32.001Z</time>
      </trkpt>
      <trkpt lat="50.43668" lon="1.65693">
        <ele>16.806</ele>
        <time>2020-06-12T18:06:35.001Z</time>
      </trkpt>
      <trkpt lat="50.43669" lon="1.65656">
        <ele>16.028</ele>
        <time>2020-06-12T18:06:38.001Z</time>
      </trkpt>
      <trkpt lat="50.43672" lon="1.6562">
        <ele>15.785</ele>
        <time>2020-06-12T18:06:41.001Z</time>
      </trkpt>
      <trkpt lat="50.43675" lon="1.65588">
        <ele>15.104</ele>
        <time>2020-06-12T18:06:44.001Z</time>
      </trkpt>
      <trkpt lat="50.43679" lon="1.65557">
        <ele>14.727</ele>
        <time>2020-06-12T18:06:47.001Z</time>
      </trkpt>
      <trkpt lat="50.43682" lon="1.65529">
        <ele>14.407</ele>
        <time>2020-06-12T18:06:50.001Z</time>
      </trkpt>
      <trkpt lat="50.43685" lon="1.65501">
        <ele>14.47</ele>
        <time>2020-06-12T18:06:53.001Z</time>
      </trkpt>
      <trkpt lat="50.4369" lon="1.65473">
        <ele>14.692</ele>
        <time>2020-06-12T18:06:56.001Z</time>
      </trkpt>
      <trkpt lat="50.43695" lon="1.65446">
        <ele>15.059</ele>
        <time>2020-06-12T18:06:59.001Z</time>
      </trkpt>
      <trkpt lat="50.43701" lon="1.6542">
        <ele>15.098</ele>
        <time>2020-06-12T18:07:02Z</time>
      </trkpt>
      <trkpt lat="50.43707" lon="1.65394">
        <ele>15.348</ele>
        <time>2020-06-12T18:07:05.001Z</time>
      </trkpt>
      <trkpt lat="50.43712" lon="1.65369">
        <ele>15.408</ele>
        <time>2020-06-12T18:07:08.001Z</time>
      </trkpt>
      <trkpt lat="50.43718" lon="1.65343">
        <ele>15.767</ele>
        <time>2020-06-12T18:07:11.001Z</time>
      </trkpt>
      <trkpt lat="50.43725" lon="1.65319">
        <ele>15.809</ele>
        <time>2020-06-12T18:07:14.001Z</time>
      </trkpt>
      <trkpt lat="50.43732" lon="1.65295">
        <ele>16.361</ele>
        <time>2020-06-12T18:07:17.001Z</time>
      </trkpt>
      <trkpt lat="50.43737" lon="1.65273">
        <ele>17.251</ele>
        <time>2020-06-12T18:07:20.001Z</time>
      </trkpt>
      <trkpt lat="50.43743" lon="1.65251">
        <ele>18.512</ele>
        <time>2020-06-12T18:07:23.001Z</time>
      </trkpt>
      <trkpt lat="50.43752" lon="1.65233">
        <ele>19.282</ele>
        <time>2020-06-12T18:07:26.001Z</time>
      </trkpt>
      <trkpt lat="50.4376" lon="1.65212">
        <ele>19.726</ele>
        <time>2020-06-12T18:07:29.001Z</time>
      </trkpt>
      <trkpt lat="50.43767" lon="1.65189">
        <ele>19.655</ele>
        <time>2020-06-12T18:07:32.001Z</time>
      </trkpt>
      <trkpt lat="50.43776" lon="1.65166">
        <ele>19.3</ele>
        <time>2020-06-12T18:07:35.001Z</time>
      </trkpt>
      <trkpt lat="50.43786" lon="1.65144">
        <ele>19.91</ele>
        <time>2020-06-12T18:07:38.001Z</time>
      </trkpt>
      <trkpt lat="50.43795" lon="1.65125">
        <ele>20.866</ele>
        <time>2020-06-12T18:07:41.001Z</time>
      </trkpt>
      <trkpt lat="50.43798" lon="1.65112">
        <ele>21.282</ele>
        <time>2020-06-12T18:07:44.001Z</time>
      </trkpt>
      <trkpt lat="50.43801" lon="1.65094">
        <ele>21.033</ele>
        <time>2020-06-12T18:07:47.001Z</time>
      </trkpt>
      <trkpt lat="50.43807" lon="1.65066">
        <ele>20.295</ele>
        <time>2020-06-12T18:07:50.001Z</time>
      </trkpt>
      <trkpt lat="50.43816" lon="1.65031">
        <ele>19.592</ele>
        <time>2020-06-12T18:07:53.001Z</time>
      </trkpt>
      <trkpt lat="50.43826" lon="1.64993">
        <ele>18.895</ele>
        <time>2020-06-12T18:07:56.001Z</time>
      </trkpt>
      <trkpt lat="50.43835" lon="1.64953">
        <ele>19.011</ele>
        <time>2020-06-12T18:07:59.001Z</time>
      </trkpt>
      <trkpt lat="50.43841" lon="1.64911">
        <ele>18.279</ele>
        <time>2020-06-12T18:08:02Z</time>
      </trkpt>
      <trkpt lat="50.43844" lon="1.64868">
        <ele>16.689</ele>
        <time>2020-06-12T18:08:05.001Z</time>
      </trkpt>
      <trkpt lat="50.43844" lon="1.6483">
        <ele>15.394</ele>
        <time>2020-06-12T18:08:08.001Z</time>
      </trkpt>
      <trkpt lat="50.43847" lon="1.64807">
        <ele>14.264</ele>
        <time>2020-06-12T18:08:11.001Z</time>
      </trkpt>
      <trkpt lat="50.43846" lon="1.64787">
        <ele>12.814</ele>
        <time>2020-06-12T18:08:14.001Z</time>
      </trkpt>
      <trkpt lat="50.43845" lon="1.6476">
        <ele>11.685</ele>
        <time>2020-06-12T18:08:17.001Z</time>
      </trkpt>
      <trkpt lat="50.43838" lon="1.64731">
        <ele>10.713</ele>
        <time>2020-06-12T18:08:20.001Z</time>
      </trkpt>
      <trkpt lat="50.4383" lon="1.64705">
        <ele>10.305</ele>
        <time>2020-06-12T18:08:23.001Z</time>
      </trkpt>
      <trkpt lat="50.43826" lon="1.64682">
        <ele>9.812</ele>
        <time>2020-06-12T18:08:26.001Z</time>
      </trkpt>
      <trkpt lat="50.43826" lon="1.6467">
        <ele>9.419</ele>
        <time>2020-06-12T18:08:29.001Z</time>
      </trkpt>
      <trkpt lat="50.43825" lon="1.64661">
        <ele>9.057</ele>
        <time>2020-06-12T18:08:32.001Z</time>
      </trkpt>
      <trkpt lat="50.43825" lon="1.6465">
        <ele>8.835</ele>
        <time>2020-06-12T18:08:35.001Z</time>
      </trkpt>
      <trkpt lat="50.43827" lon="1.64639">
        <ele>8.432</ele>
        <time>2020-06-12T18:08:38.001Z</time>
      </trkpt>
      <trkpt lat="50.43828" lon="1.64627">
        <ele>7.78</ele>
        <time>2020-06-12T18:08:41.001Z</time>
      </trkpt>
      <trkpt lat="50.43826" lon="1.64614">
        <ele>7.027</ele>
        <time>2020-06-12T18:08:44.001Z</time>
      </trkpt>
      <trkpt lat="50.43824" lon="1.646">
        <ele>5.95</ele>
        <time>2020-06-12T18:08:47.001Z</time>
      </trkpt>
      <trkpt lat="50.43823" lon="1.64584">
        <ele>5.977</ele>
        <time>2020-06-12T18:08:50.001Z</time>
      </trkpt>
      <trkpt lat="50.43822" lon="1.64572">
        <ele>6.066</ele>
        <time>2020-06-12T18:08:53.001Z</time>
      </trkpt>
      <trkpt lat="50.43821" lon="1.64557">
        <ele>5.707</ele>
        <time>2020-06-12T18:08:56.001Z</time>
      </trkpt>
      <trkpt lat="50.4382" lon="1.64541">
        <ele>5.322</ele>
        <time>2020-06-12T18:08:59.001Z</time>
      </trkpt>
      <trkpt lat="50.43818" lon="1.64524">
        <ele>5.394</ele>
        <time>2020-06-12T18:09:02Z</time>
      </trkpt>
      <trkpt lat="50.43817" lon="1.64506">
        <ele>5.261</ele>
        <time>2020-06-12T18:09:05.001Z</time>
      </trkpt>
      <trkpt lat="50.43813" lon="1.6449">
        <ele>5.044</ele>
        <time>2020-06-12T18:09:08.001Z</time>
      </trkpt>
      <trkpt lat="50.4381" lon="1.64475">
        <ele>4.572</ele>
        <time>2020-06-12T18:09:11.001Z</time>
      </trkpt>
      <trkpt lat="50.4381" lon="1.64462">
        <ele>4.301</ele>
        <time>2020-06-12T18:09:14.001Z</time>
      </trkpt>
      <trkpt lat="50.43812" lon="1.64446">
        <ele>4.142</ele>
        <time>2020-06-12T18:09:17.001Z</time>
      </trkpt>
      <trkpt lat="50.43814" lon="1.64427">
        <ele>3.627</ele>
        <time>2020-06-12T18:09:20.001Z</time>
      </trkpt>
      <trkpt lat="50.43816" lon="1.64413">
        <ele>3.606</ele>
        <time>2020-06-12T18:09:23.001Z</time>
      </trkpt>
      <trkpt lat="50.43819" lon="1.644">
        <ele>3.458</ele>
        <time>2020-06-12T18:09:26.001Z</time>
      </trkpt>
      <trkpt lat="50.4382" lon="1.6439">
        <ele>3.428</ele>
        <time>2020-06-12T18:09:29.001Z</time>
      </trkpt>
      <trkpt lat="50.4382" lon="1.64379">
        <ele>3.357</ele>
        <time>2020-06-12T18:09:32.001Z</time>
      </trkpt>
      <trkpt lat="50.43821" lon="1.64366">
        <ele>3.198</ele>
        <time>2020-06-12T18:09:35.001Z</time>
      </trkpt>
      <trkpt lat="50.43823" lon="1.64353">
        <ele>2.805</ele>
        <time>2020-06-12T18:09:38.001Z</time>
      </trkpt>
      <trkpt lat="50.43825" lon="1.64341">
        <ele>2.099</ele>
        <time>2020-06-12T18:09:41.001Z</time>
      </trkpt>
      <trkpt lat="50.43827" lon="1.64327">
        <ele>1.224</ele>
        <time>2020-06-12T18:09:44.001Z</time>
      </trkpt>
      <trkpt lat="50.43828" lon="1.64312">
        <ele>0.594</ele>
        <time>2020-06-12T18:09:47.001Z</time>
      </trkpt>
      <trkpt lat="50.43831" lon="1.64299">
        <ele>0.227</ele>
        <time>2020-06-12T18:09:50.001Z</time>
      </trkpt>
      <trkpt lat="50.43834" lon="1.64288">
        <ele>0.678</ele>
        <time>2020-06-12T18:09:53.001Z</time>
      </trkpt>
      <trkpt lat="50.43835" lon="1.64278">
        <ele>0.656</ele>
        <time>2020-06-12T18:09:56.001Z</time>
      </trkpt>
      <trkpt lat="50.43836" lon="1.6427">
        <ele>0.985</ele>
        <time>2020-06-12T18:09:59.001Z</time>
      </trkpt>
      <trkpt lat="50.43837" lon="1.64261">
        <ele>1.027</ele>
        <time>2020-06-12T18:10:02Z</time>
      </trkpt>
      <trkpt lat="50.43839" lon="1.64248">
        <ele>1.232</ele>
        <time>2020-06-12T18:10:05.001Z</time>
      </trkpt>
      <trkpt lat="50.4384" lon="1.64237">
        <ele>1.356</ele>
        <time>2020-06-12T18:10:08.001Z</time>
      </trkpt>
      <trkpt lat="50.43841" lon="1.64225">
        <ele>1.224</ele>
        <time>2020-06-12T18:10:11.001Z</time>
      </trkpt>
      <trkpt lat="50.43842" lon="1.64212">
        <ele>0.594</ele>
        <time>2020-06-12T18:10:14.001Z</time>
      </trkpt>
      <trkpt lat="50.43844" lon="1.64198">
        <ele>1.135</ele>
        <time>2020-06-12T18:10:17.001Z</time>
      </trkpt>
      <trkpt lat="50.43846" lon="1.64186">
        <ele>1.679</ele>
        <time>2020-06-12T18:10:20.001Z</time>
      </trkpt>
      <trkpt lat="50.43849" lon="1.64174">
        <ele>2.719</ele>
        <time>2020-06-12T18:10:23.001Z</time>
      </trkpt>
      <trkpt lat="50.43851" lon="1.64164">
        <ele>2.829</ele>
        <time>2020-06-12T18:10:26.001Z</time>
      </trkpt>
      <trkpt lat="50.43853" lon="1.64153">
        <ele>3.037</ele>
        <time>2020-06-12T18:10:29.001Z</time>
      </trkpt>
      <trkpt lat="50.43855" lon="1.64143">
        <ele>3.475</ele>
        <time>2020-06-12T18:10:32.001Z</time>
      </trkpt>
      <trkpt lat="50.43857" lon="1.64132">
        <ele>3.99</ele>
        <time>2020-06-12T18:10:35.001Z</time>
      </trkpt>
      <trkpt lat="50.4386" lon="1.64123">
        <ele>4.152</ele>
        <time>2020-06-12T18:10:38.001Z</time>
      </trkpt>
      <trkpt lat="50.43862" lon="1.64114">
        <ele>4.047</ele>
        <time>2020-06-12T18:10:41.001Z</time>
      </trkpt>
      <trkpt lat="50.43866" lon="1.64105">
        <ele>4.139</ele>
        <time>2020-06-12T18:10:44.001Z</time>
      </trkpt>
      <trkpt lat="50.43869" lon="1.64096">
        <ele>4.293</ele>
        <time>2020-06-12T18:10:47.001Z</time>
      </trkpt>
      <trkpt lat="50.43873" lon="1.64086">
        <ele>4.134</ele>
        <time>2020-06-12T18:10:50.001Z</time>
      </trkpt>
      <trkpt lat="50.43878" lon="1.64077">
        <ele>3.996</ele>
        <time>2020-06-12T18:10:53.001Z</time>
      </trkpt>
      <trkpt lat="50.43883" lon="1.6407">
        <ele>4.514</ele>
        <time>2020-06-12T18:10:56.001Z</time>
      </trkpt>
      <trkpt lat="50.43888" lon="1.64063">
        <ele>4.869</ele>
        <time>2020-06-12T18:10:59.001Z</time>
      </trkpt>
      <trkpt lat="50.43894" lon="1.64058">
        <ele>4.897</ele>
        <time>2020-06-12T18:11:02Z</time>
      </trkpt>
      <trkpt lat="50.439" lon="1.64053">
        <ele>4.657</ele>
        <time>2020-06-12T18:11:05.001Z</time>
      </trkpt>
      <trkpt lat="50.43907" lon="1.64047">
        <ele>4.571</ele>
        <time>2020-06-12T18:11:08.001Z</time>
      </trkpt>
      <trkpt lat="50.43912" lon="1.64041">
        <ele>4.589</ele>
        <time>2020-06-12T18:11:11.001Z</time>
      </trkpt>
      <trkpt lat="50.43918" lon="1.64035">
        <ele>4.46</ele>
        <time>2020-06-12T18:11:14.001Z</time>
      </trkpt>
      <trkpt lat="50.43922" lon="1.6403">
        <ele>4.611</ele>
        <time>2020-06-12T18:11:17.001Z</time>
      </trkpt>
      <trkpt lat="50.43924" lon="1.64021">
        <ele>4.624</ele>
        <time>2020-06-12T18:11:20.001Z</time>
      </trkpt>
      <trkpt lat="50.43925" lon="1.64011">
        <ele>4.319</ele>
        <time>2020-06-12T18:11:23.001Z</time>
      </trkpt>
      <trkpt lat="50.43922" lon="1.64">
        <ele>4.176</ele>
        <time>2020-06-12T18:11:26.001Z</time>
      </trkpt>
      <trkpt lat="50.43918" lon="1.63993">
        <ele>4.032</ele>
        <time>2020-06-12T18:11:29.001Z</time>
      </trkpt>
      <trkpt lat="50.43914" lon="1.63986">
        <ele>3.769</ele>
        <time>2020-06-12T18:11:32.001Z</time>
      </trkpt>
      <trkpt lat="50.43912" lon="1.63977">
        <ele>4.236</ele>
        <time>2020-06-12T18:11:35.001Z</time>
      </trkpt>
      <trkpt lat="50.43909" lon="1.63969">
        <ele>4.922</ele>
        <time>2020-06-12T18:11:38.001Z</time>
      </trkpt>
      <trkpt lat="50.43908" lon="1.63962">
        <ele>5.61</ele>
        <time>2020-06-12T18:11:41.001Z</time>
      </trkpt>
      <trkpt lat="50.43907" lon="1.63951">
        <ele>5.815</ele>
        <time>2020-06-12T18:11:44.001Z</time>
      </trkpt>
      <trkpt lat="50.43909" lon="1.63939">
        <ele>6.01</ele>
        <time>2020-06-12T18:11:47.001Z</time>
      </trkpt>
      <trkpt lat="50.43911" lon="1.63926">
        <ele>6.556</ele>
        <time>2020-06-12T18:11:50.001Z</time>
      </trkpt>
      <trkpt lat="50.43914" lon="1.63916">
        <ele>6.555</ele>
        <time>2020-06-12T18:11:53.001Z</time>
      </trkpt>
      <trkpt lat="50.43916" lon="1.63906">
        <ele>6.5</ele>
        <time>2020-06-12T18:11:56.001Z</time>
      </trkpt>
      <trkpt lat="50.43919" lon="1.63895">
        <ele>6.093</ele>
        <time>2020-06-12T18:11:59.001Z</time>
      </trkpt>
      <trkpt lat="50.43921" lon="1.63885">
        <ele>5.723</ele>
        <time>2020-06-12T18:12:02Z</time>
      </trkpt>
      <trkpt lat="50.43923" lon="1.63874">
        <ele>5.44</ele>
        <time>2020-06-12T18:12:05.001Z</time>
      </trkpt>
      <trkpt lat="50.43925" lon="1.63864">
        <ele>5.491</ele>
        <time>2020-06-12T18:12:08.001Z</time>
      </trkpt>
      <trkpt lat="50.43926" lon="1.63853">
        <ele>5.526</ele>
        <time>2020-06-12T18:12:11.001Z</time>
      </trkpt>
      <trkpt lat="50.43929" lon="1.63843">
        <ele>5.984</ele>
        <time>2020-06-12T18:12:14.001Z</time>
      </trkpt>
      <trkpt lat="50.4393" lon="1.63832">
        <ele>6.402</ele>
        <time>2020-06-12T18:12:17.001Z</time>
      </trkpt>
      <trkpt lat="50.43932" lon="1.63823">
        <ele>6.527</ele>
        <time>2020-06-12T18:12:20.001Z</time>
      </trkpt>
      <trkpt lat="50.43933" lon="1.63814">
        <ele>6.443</ele>
        <time>2020-06-12T18:12:23.001Z</time>
      </trkpt>
      <trkpt lat="50.43935" lon="1.63803">
        <ele>6.09</ele>
        <time>2020-06-12T18:12:26.001Z</time>
      </trkpt>
      <trkpt lat="50.43936" lon="1.63793">
        <ele>6.265</ele>
        <time>2020-06-12T18:12:29.001Z</time>
      </trkpt>
      <trkpt lat="50.43938" lon="1.63782">
        <ele>6.421</ele>
        <time>2020-06-12T18:12:32.001Z</time>
      </trkpt>
      <trkpt lat="50.43939" lon="1.63772">
        <ele>6.996</ele>
        <time>2020-06-12T18:12:35.001Z</time>
      </trkpt>
      <trkpt lat="50.4394" lon="1.63762">
        <ele>7.036</ele>
        <time>2020-06-12T18:12:38.001Z</time>
      </trkpt>
      <trkpt lat="50.43941" lon="1.6375">
        <ele>6.678</ele>
        <time>2020-06-12T18:12:41.001Z</time>
      </trkpt>
      <trkpt lat="50.43941" lon="1.63739">
        <ele>6.493</ele>
        <time>2020-06-12T18:12:44.001Z</time>
      </trkpt>
      <trkpt lat="50.4394" lon="1.63727">
        <ele>6.075</ele>
        <time>2020-06-12T18:12:47.001Z</time>
      </trkpt>
      <trkpt lat="50.43939" lon="1.63715">
        <ele>6.14</ele>
        <time>2020-06-12T18:12:50.001Z</time>
      </trkpt>
      <trkpt lat="50.43938" lon="1.63702">
        <ele>5.697</ele>
        <time>2020-06-12T18:12:53.001Z</time>
      </trkpt>
      <trkpt lat="50.43937" lon="1.6369">
        <ele>4.67</ele>
        <time>2020-06-12T18:12:56.001Z</time>
      </trkpt>
      <trkpt lat="50.43936" lon="1.63678">
        <ele>4.68</ele>
        <time>2020-06-12T18:12:59.001Z</time>
      </trkpt>
      <trkpt lat="50.43935" lon="1.63665">
        <ele>5.167</ele>
        <time>2020-06-12T18:13:02Z</time>
      </trkpt>
      <trkpt lat="50.43935" lon="1.63654">
        <ele>4.872</ele>
        <time>2020-06-12T18:13:05.001Z</time>
      </trkpt>
      <trkpt lat="50.43935" lon="1.63638">
        <ele>4.579</ele>
        <time>2020-06-12T18:13:08.001Z</time>
      </trkpt>
      <trkpt lat="50.43939" lon="1.6362">
        <ele>4.296</ele>
        <time>2020-06-12T18:13:11.001Z</time>
      </trkpt>
      <trkpt lat="50.43945" lon="1.63603">
        <ele>3.575</ele>
        <time>2020-06-12T18:13:14.001Z</time>
      </trkpt>
      <trkpt lat="50.43951" lon="1.63585">
        <ele>2.857</ele>
        <time>2020-06-12T18:13:17.001Z</time>
      </trkpt>
      <trkpt lat="50.43958" lon="1.63565">
        <ele>2.27</ele>
        <time>2020-06-12T18:13:20.001Z</time>
      </trkpt>
      <trkpt lat="50.43964" lon="1.63543">
        <ele>2.25</ele>
        <time>2020-06-12T18:13:23.001Z</time>
      </trkpt>
      <trkpt lat="50.43971" lon="1.63521">
        <ele>2.237</ele>
        <time>2020-06-12T18:13:26.001Z</time>
      </trkpt>
      <trkpt lat="50.43979" lon="1.635">
        <ele>1.896</ele>
        <time>2020-06-12T18:13:29.001Z</time>
      </trkpt>
      <trkpt lat="50.43987" lon="1.63477">
        <ele>2.007</ele>
        <time>2020-06-12T18:13:32.001Z</time>
      </trkpt>
      <trkpt lat="50.43995" lon="1.63454">
        <ele>2.123</ele>
        <time>2020-06-12T18:13:35.001Z</time>
      </trkpt>
      <trkpt lat="50.44004" lon="1.6343">
        <ele>2.065</ele>
        <time>2020-06-12T18:13:38.001Z</time>
      </trkpt>
      <trkpt lat="50.44013" lon="1.63405">
        <ele>2.081</ele>
        <time>2020-06-12T18:13:41.001Z</time>
      </trkpt>
      <trkpt lat="50.44021" lon="1.63379">
        <ele>1.707</ele>
        <time>2020-06-12T18:13:44.001Z</time>
      </trkpt>
      <trkpt lat="50.44029" lon="1.63354">
        <ele>1.548</ele>
        <time>2020-06-12T18:13:47.001Z</time>
      </trkpt>
      <trkpt lat="50.44038" lon="1.63329">
        <ele>1.11</ele>
        <time>2020-06-12T18:13:50.001Z</time>
      </trkpt>
      <trkpt lat="50.44047" lon="1.63305">
        <ele>0.996</ele>
        <time>2020-06-12T18:13:53.001Z</time>
      </trkpt>
      <trkpt lat="50.44054" lon="1.6328">
        <ele>0.979</ele>
        <time>2020-06-12T18:13:56.001Z</time>
      </trkpt>
      <trkpt lat="50.44059" lon="1.63255">
        <ele>1.546</ele>
        <time>2020-06-12T18:13:59.001Z</time>
      </trkpt>
      <trkpt lat="50.4406" lon="1.63227">
        <ele>1.83</ele>
        <time>2020-06-12T18:14:02Z</time>
      </trkpt>
      <trkpt lat="50.44061" lon="1.63198">
        <ele>1.53</ele>
        <time>2020-06-12T18:14:05.001Z</time>
      </trkpt>
      <trkpt lat="50.44064" lon="1.63171">
        <ele>1.646</ele>
        <time>2020-06-12T18:14:08.001Z</time>
      </trkpt>
      <trkpt lat="50.4407" lon="1.63146">
        <ele>1.768</ele>
        <time>2020-06-12T18:14:11.001Z</time>
      </trkpt>
      <trkpt lat="50.44081" lon="1.63124">
        <ele>2.171</ele>
        <time>2020-06-12T18:14:14.001Z</time>
      </trkpt>
      <trkpt lat="50.44094" lon="1.63103">
        <ele>2.732</ele>
        <time>2020-06-12T18:14:17.001Z</time>
      </trkpt>
      <trkpt lat="50.44106" lon="1.63082">
        <ele>2.955</ele>
        <time>2020-06-12T18:14:20.001Z</time>
      </trkpt>
      <trkpt lat="50.44116" lon="1.6306">
        <ele>3.346</ele>
        <time>2020-06-12T18:14:23.001Z</time>
      </trkpt>
      <trkpt lat="50.44126" lon="1.63038">
        <ele>3.446</ele>
        <time>2020-06-12T18:14:26.001Z</time>
      </trkpt>
      <trkpt lat="50.44134" lon="1.63014">
        <ele>3.79</ele>
        <time>2020-06-12T18:14:29.001Z</time>
      </trkpt>
      <trkpt lat="50.44142" lon="1.6299">
        <ele>3.708</ele>
        <time>2020-06-12T18:14:32.001Z</time>
      </trkpt>
      <trkpt lat="50.44151" lon="1.62966">
        <ele>3.789</ele>
        <time>2020-06-12T18:14:35.001Z</time>
      </trkpt>
      <trkpt lat="50.4416" lon="1.62939">
        <ele>4.159</ele>
        <time>2020-06-12T18:14:38.001Z</time>
      </trkpt>
      <trkpt lat="50.44169" lon="1.62911">
        <ele>4.892</ele>
        <time>2020-06-12T18:14:41.001Z</time>
      </trkpt>
      <trkpt lat="50.44179" lon="1.62885">
        <ele>5.867</ele>
        <time>2020-06-12T18:14:44.001Z</time>
      </trkpt>
      <trkpt lat="50.44192" lon="1.62864">
        <ele>6.714</ele>
        <time>2020-06-12T18:14:47.001Z</time>
      </trkpt>
      <trkpt lat="50.4421" lon="1.6285">
        <ele>7.158</ele>
        <time>2020-06-12T18:14:50.001Z</time>
      </trkpt>
      <trkpt lat="50.44228" lon="1.6284">
        <ele>7.106</ele>
        <time>2020-06-12T18:14:53.001Z</time>
      </trkpt>
      <trkpt lat="50.44246" lon="1.62829">
        <ele>7.393</ele>
        <time>2020-06-12T18:14:56.001Z</time>
      </trkpt>
      <trkpt lat="50.44263" lon="1.62818">
        <ele>7.303</ele>
        <time>2020-06-12T18:14:59.001Z</time>
      </trkpt>
      <trkpt lat="50.44278" lon="1.62804">
        <ele>7.153</ele>
        <time>2020-06-12T18:15:02Z</time>
      </trkpt>
      <trkpt lat="50.44289" lon="1.62782">
        <ele>6.736</ele>
        <time>2020-06-12T18:15:05.001Z</time>
      </trkpt>
      <trkpt lat="50.44296" lon="1.62756">
        <ele>6.135</ele>
        <time>2020-06-12T18:15:08.001Z</time>
      </trkpt>
      <trkpt lat="50.44303" lon="1.6273">
        <ele>5.767</ele>
        <time>2020-06-12T18:15:11.001Z</time>
      </trkpt>
      <trkpt lat="50.44309" lon="1.62706">
        <ele>5.224</ele>
        <time>2020-06-12T18:15:14.001Z</time>
      </trkpt>
      <trkpt lat="50.44315" lon="1.6268">
        <ele>5.01</ele>
        <time>2020-06-12T18:15:17.001Z</time>
      </trkpt>
      <trkpt lat="50.44322" lon="1.62653">
        <ele>4.86</ele>
        <time>2020-06-12T18:15:20.001Z</time>
      </trkpt>
      <trkpt lat="50.44328" lon="1.62625">
        <ele>4.821</ele>
        <time>2020-06-12T18:15:23.001Z</time>
      </trkpt>
      <trkpt lat="50.44332" lon="1.62595">
        <ele>4.901</ele>
        <time>2020-06-12T18:15:26.001Z</time>
      </trkpt>
      <trkpt lat="50.44331" lon="1.62566">
        <ele>4.677</ele>
        <time>2020-06-12T18:15:29.001Z</time>
      </trkpt>
      <trkpt lat="50.44329" lon="1.62541">
        <ele>4.87</ele>
        <time>2020-06-12T18:15:32.001Z</time>
      </trkpt>
      <trkpt lat="50.44328" lon="1.62519">
        <ele>5.243</ele>
        <time>2020-06-12T18:15:35.001Z</time>
      </trkpt>
      <trkpt lat="50.44333" lon="1.62494">
        <ele>4.895</ele>
        <time>2020-06-12T18:15:38.001Z</time>
      </trkpt>
      <trkpt lat="50.44347" lon="1.62475">
        <ele>4.994</ele>
        <time>2020-06-12T18:15:41.001Z</time>
      </trkpt>
      <trkpt lat="50.4436" lon="1.62458">
        <ele>5.526</ele>
        <time>2020-06-12T18:15:44.001Z</time>
      </trkpt>
      <trkpt lat="50.44374" lon="1.62442">
        <ele>5.515</ele>
        <time>2020-06-12T18:15:47.001Z</time>
      </trkpt>
      <trkpt lat="50.4439" lon="1.62424">
        <ele>5.631</ele>
        <time>2020-06-12T18:15:50.001Z</time>
      </trkpt>
      <trkpt lat="50.44404" lon="1.62405">
        <ele>6.161</ele>
        <time>2020-06-12T18:15:53.001Z</time>
      </trkpt>
      <trkpt lat="50.44414" lon="1.62382">
        <ele>6.182</ele>
        <time>2020-06-12T18:15:56.001Z</time>
      </trkpt>
      <trkpt lat="50.44423" lon="1.6236">
        <ele>6.309</ele>
        <time>2020-06-12T18:15:59.001Z</time>
      </trkpt>
      <trkpt lat="50.44431" lon="1.62337">
        <ele>6.175</ele>
        <time>2020-06-12T18:16:02Z</time>
      </trkpt>
      <trkpt lat="50.44437" lon="1.62313">
        <ele>5.482</ele>
        <time>2020-06-12T18:16:05.001Z</time>
      </trkpt>
      <trkpt lat="50.44443" lon="1.62289">
        <ele>5.274</ele>
        <time>2020-06-12T18:16:08.001Z</time>
      </trkpt>
      <trkpt lat="50.44452" lon="1.62264">
        <ele>5.194</ele>
        <time>2020-06-12T18:16:11.001Z</time>
      </trkpt>
      <trkpt lat="50.44459" lon="1.62239">
        <ele>4.969</ele>
        <time>2020-06-12T18:16:14.001Z</time>
      </trkpt>
      <trkpt lat="50.44466" lon="1.62218">
        <ele>4.801</ele>
        <time>2020-06-12T18:16:17.001Z</time>
      </trkpt>
      <trkpt lat="50.44472" lon="1.62195">
        <ele>4.909</ele>
        <time>2020-06-12T18:16:20.001Z</time>
      </trkpt>
      <trkpt lat="50.44473" lon="1.62172">
        <ele>5.656</ele>
        <time>2020-06-12T18:16:23.001Z</time>
      </trkpt>
      <trkpt lat="50.44465" lon="1.62151">
        <ele>6.053</ele>
        <time>2020-06-12T18:16:26.001Z</time>
      </trkpt>
      <trkpt lat="50.44455" lon="1.62129">
        <ele>6.747</ele>
        <time>2020-06-12T18:16:29.001Z</time>
      </trkpt>
      <trkpt lat="50.44446" lon="1.62106">
        <ele>7.393</ele>
        <time>2020-06-12T18:16:32.001Z</time>
      </trkpt>
      <trkpt lat="50.44437" lon="1.62086">
        <ele>7.617</ele>
        <time>2020-06-12T18:16:35.001Z</time>
      </trkpt>
      <trkpt lat="50.44426" lon="1.62066">
        <ele>6.816</ele>
        <time>2020-06-12T18:16:38.001Z</time>
      </trkpt>
      <trkpt lat="50.44415" lon="1.62046">
        <ele>5.862</ele>
        <time>2020-06-12T18:16:41.001Z</time>
      </trkpt>
      <trkpt lat="50.44403" lon="1.62028">
        <ele>5.154</ele>
        <time>2020-06-12T18:16:44.001Z</time>
      </trkpt>
      <trkpt lat="50.44392" lon="1.6201">
        <ele>5.179</ele>
        <time>2020-06-12T18:16:47.001Z</time>
      </trkpt>
      <trkpt lat="50.44382" lon="1.61992">
        <ele>5.063</ele>
        <time>2020-06-12T18:16:50.001Z</time>
      </trkpt>
      <trkpt lat="50.44376" lon="1.61971">
        <ele>5.063</ele>
        <time>2020-06-12T18:16:53.001Z</time>
      </trkpt>
      <trkpt lat="50.44372" lon="1.61946">
        <ele>5.253</ele>
        <time>2020-06-12T18:16:56.001Z</time>
      </trkpt>
      <trkpt lat="50.44368" lon="1.61923">
        <ele>5.535</ele>
        <time>2020-06-12T18:16:59.001Z</time>
      </trkpt>
      <trkpt lat="50.44358" lon="1.61905">
        <ele>5.287</ele>
        <time>2020-06-12T18:17:02Z</time>
      </trkpt>
      <trkpt lat="50.44343" lon="1.61891">
        <ele>5.457</ele>
        <time>2020-06-12T18:17:05.001Z</time>
      </trkpt>
      <trkpt lat="50.4433" lon="1.61873">
        <ele>5.734</ele>
        <time>2020-06-12T18:17:08.001Z</time>
      </trkpt>
      <trkpt lat="50.44322" lon="1.61853">
        <ele>5.718</ele>
        <time>2020-06-12T18:17:11.001Z</time>
      </trkpt>
      <trkpt lat="50.44321" lon="1.61827">
        <ele>5.932</ele>
        <time>2020-06-12T18:17:14.001Z</time>
      </trkpt>
      <trkpt lat="50.44324" lon="1.61801">
        <ele>5.804</ele>
        <time>2020-06-12T18:17:17.001Z</time>
      </trkpt>
      <trkpt lat="50.44328" lon="1.61779">
        <ele>5.979</ele>
        <time>2020-06-12T18:17:20.001Z</time>
      </trkpt>
      <trkpt lat="50.44339" lon="1.61765">
        <ele>6.369</ele>
        <time>2020-06-12T18:17:23.001Z</time>
      </trkpt>
      <trkpt lat="50.4435" lon="1.61751">
        <ele>6.45</ele>
        <time>2020-06-12T18:17:26.001Z</time>
      </trkpt>
      <trkpt lat="50.4436" lon="1.6174">
        <ele>6.609</ele>
        <time>2020-06-12T18:17:29.001Z</time>
      </trkpt>
      <trkpt lat="50.44372" lon="1.61743">
        <ele>6.067</ele>
        <time>2020-06-12T18:17:32.001Z</time>
      </trkpt>
      <trkpt lat="50.44387" lon="1.61744">
        <ele>5.438</ele>
        <time>2020-06-12T18:17:35.001Z</time>
      </trkpt>
      <trkpt lat="50.44403" lon="1.61745">
        <ele>4.373</ele>
        <time>2020-06-12T18:17:38.001Z</time>
      </trkpt>
      <trkpt lat="50.44419" lon="1.61748">
        <ele>4.212</ele>
        <time>2020-06-12T18:17:41.001Z</time>
      </trkpt>
      <trkpt lat="50.44434" lon="1.6175">
        <ele>4.018</ele>
        <time>2020-06-12T18:17:44.001Z</time>
      </trkpt>
      <trkpt lat="50.44449" lon="1.61751">
        <ele>4.629</ele>
        <time>2020-06-12T18:17:47.001Z</time>
      </trkpt>
      <trkpt lat="50.44465" lon="1.61753">
        <ele>5.284</ele>
        <time>2020-06-12T18:17:50.001Z</time>
      </trkpt>
      <trkpt lat="50.44482" lon="1.61756">
        <ele>5.947</ele>
        <time>2020-06-12T18:17:53.001Z</time>
      </trkpt>
      <trkpt lat="50.445" lon="1.61758">
        <ele>6.547</ele>
        <time>2020-06-12T18:17:56.001Z</time>
      </trkpt>
      <trkpt lat="50.44516" lon="1.61759">
        <ele>7.092</ele>
        <time>2020-06-12T18:17:59.001Z</time>
      </trkpt>
      <trkpt lat="50.44532" lon="1.61759">
        <ele>7.839</ele>
        <time>2020-06-12T18:18:02Z</time>
      </trkpt>
      <trkpt lat="50.44548" lon="1.61758">
        <ele>7.962</ele>
        <time>2020-06-12T18:18:05.001Z</time>
      </trkpt>
      <trkpt lat="50.44563" lon="1.61757">
        <ele>7.949</ele>
        <time>2020-06-12T18:18:08.001Z</time>
      </trkpt>
      <trkpt lat="50.4458" lon="1.61755">
        <ele>7.842</ele>
        <time>2020-06-12T18:18:11.001Z</time>
      </trkpt>
      <trkpt lat="50.44598" lon="1.61752">
        <ele>7.826</ele>
        <time>2020-06-12T18:18:14.001Z</time>
      </trkpt>
      <trkpt lat="50.44617" lon="1.61748">
        <ele>7.197</ele>
        <time>2020-06-12T18:18:17.001Z</time>
      </trkpt>
      <trkpt lat="50.44636" lon="1.61734">
        <ele>7.644</ele>
        <time>2020-06-12T18:18:20.001Z</time>
      </trkpt>
      <trkpt lat="50.44655" lon="1.61721">
        <ele>8.117</ele>
        <time>2020-06-12T18:18:23.001Z</time>
      </trkpt>
      <trkpt lat="50.44676" lon="1.6171">
        <ele>9.236</ele>
        <time>2020-06-12T18:18:26.001Z</time>
      </trkpt>
      <trkpt lat="50.44694" lon="1.61699">
        <ele>9.935</ele>
        <time>2020-06-12T18:18:29.001Z</time>
      </trkpt>
      <trkpt lat="50.44712" lon="1.61685">
        <ele>10.923</ele>
        <time>2020-06-12T18:18:32.001Z</time>
      </trkpt>
      <trkpt lat="50.4473" lon="1.61673">
        <ele>11.549</ele>
        <time>2020-06-12T18:18:35.001Z</time>
      </trkpt>
      <trkpt lat="50.44748" lon="1.6166">
        <ele>11.297</ele>
        <time>2020-06-12T18:18:38.001Z</time>
      </trkpt>
      <trkpt lat="50.44767" lon="1.61646">
        <ele>11.166</ele>
        <time>2020-06-12T18:18:41.001Z</time>
      </trkpt>
      <trkpt lat="50.44785" lon="1.61632">
        <ele>11.152</ele>
        <time>2020-06-12T18:18:44.001Z</time>
      </trkpt>
      <trkpt lat="50.44804" lon="1.61619">
        <ele>11.126</ele>
        <time>2020-06-12T18:18:47.001Z</time>
      </trkpt>
      <trkpt lat="50.44824" lon="1.61605">
        <ele>11.273</ele>
        <time>2020-06-12T18:18:50.001Z</time>
      </trkpt>
      <trkpt lat="50.44844" lon="1.61593">
        <ele>11.814</ele>
        <time>2020-06-12T18:18:53.001Z</time>
      </trkpt>
      <trkpt lat="50.44865" lon="1.61578">
        <ele>11.727</ele>
        <time>2020-06-12T18:18:56.001Z</time>
      </trkpt>
      <trkpt lat="50.44887" lon="1.61564">
        <ele>11.492</ele>
        <time>2020-06-12T18:18:59.001Z</time>
      </trkpt>
      <trkpt lat="50.44908" lon="1.61552">
        <ele>10.719</ele>
        <time>2020-06-12T18:19:02Z</time>
      </trkpt>
      <trkpt lat="50.44932" lon="1.61544">
        <ele>9.825</ele>
        <time>2020-06-12T18:19:05.001Z</time>
      </trkpt>
      <trkpt lat="50.44957" lon="1.61539">
        <ele>8.992</ele>
        <time>2020-06-12T18:19:08.001Z</time>
      </trkpt>
      <trkpt lat="50.44981" lon="1.61535">
        <ele>8.072</ele>
        <time>2020-06-12T18:19:11.001Z</time>
      </trkpt>
      <trkpt lat="50.45003" lon="1.61531">
        <ele>7.09</ele>
        <time>2020-06-12T18:19:14.001Z</time>
      </trkpt>
      <trkpt lat="50.45024" lon="1.61528">
        <ele>6.188</ele>
        <time>2020-06-12T18:19:17.001Z</time>
      </trkpt>
      <trkpt lat="50.45043" lon="1.61524">
        <ele>5.687</ele>
        <time>2020-06-12T18:19:20.001Z</time>
      </trkpt>
      <trkpt lat="50.45062" lon="1.61518">
        <ele>6.852</ele>
        <time>2020-06-12T18:19:23.001Z</time>
      </trkpt>
      <trkpt lat="50.45083" lon="1.61513">
        <ele>7.997</ele>
        <time>2020-06-12T18:19:26.001Z</time>
      </trkpt>
      <trkpt lat="50.45104" lon="1.61511">
        <ele>8.115</ele>
        <time>2020-06-12T18:19:29.001Z</time>
      </trkpt>
      <trkpt lat="50.45125" lon="1.61506">
        <ele>7.911</ele>
        <time>2020-06-12T18:19:32.001Z</time>
      </trkpt>
      <trkpt lat="50.45143" lon="1.61495">
        <ele>7.623</ele>
        <time>2020-06-12T18:19:35.001Z</time>
      </trkpt>
      <trkpt lat="50.45162" lon="1.61484">
        <ele>7.202</ele>
        <time>2020-06-12T18:19:38.001Z</time>
      </trkpt>
      <trkpt lat="50.45184" lon="1.61476">
        <ele>7.365</ele>
        <time>2020-06-12T18:19:41.001Z</time>
      </trkpt>
      <trkpt lat="50.45205" lon="1.61467">
        <ele>7.177</ele>
        <time>2020-06-12T18:19:44.001Z</time>
      </trkpt>
      <trkpt lat="50.45225" lon="1.61456">
        <ele>6.981</ele>
        <time>2020-06-12T18:19:47.001Z</time>
      </trkpt>
      <trkpt lat="50.45245" lon="1.61444">
        <ele>7.023</ele>
        <time>2020-06-12T18:19:50.001Z</time>
      </trkpt>
      <trkpt lat="50.45266" lon="1.61433">
        <ele>7.399</ele>
        <time>2020-06-12T18:19:53.001Z</time>
      </trkpt>
      <trkpt lat="50.45285" lon="1.61423">
        <ele>8.301</ele>
        <time>2020-06-12T18:19:56.001Z</time>
      </trkpt>
      <trkpt lat="50.45302" lon="1.6141">
        <ele>9.834</ele>
        <time>2020-06-12T18:19:59.001Z</time>
      </trkpt>
      <trkpt lat="50.45321" lon="1.61397">
        <ele>10.718</ele>
        <time>2020-06-12T18:20:02Z</time>
      </trkpt>
      <trkpt lat="50.4534" lon="1.61389">
        <ele>11.542</ele>
        <time>2020-06-12T18:20:05.001Z</time>
      </trkpt>
      <trkpt lat="50.45361" lon="1.61385">
        <ele>12.332</ele>
        <time>2020-06-12T18:20:08.001Z</time>
      </trkpt>
      <trkpt lat="50.45382" lon="1.61384">
        <ele>13.508</ele>
        <time>2020-06-12T18:20:11.001Z</time>
      </trkpt>
      <trkpt lat="50.45403" lon="1.61383">
        <ele>14.624</ele>
        <time>2020-06-12T18:20:14.001Z</time>
      </trkpt>
      <trkpt lat="50.45423" lon="1.61381">
        <ele>14.685</ele>
        <time>2020-06-12T18:20:17.001Z</time>
      </trkpt>
      <trkpt lat="50.45443" lon="1.61377">
        <ele>13.905</ele>
        <time>2020-06-12T18:20:20.001Z</time>
      </trkpt>
      <trkpt lat="50.45462" lon="1.61371">
        <ele>13.438</ele>
        <time>2020-06-12T18:20:23.001Z</time>
      </trkpt>
      <trkpt lat="50.4548" lon="1.61367">
        <ele>13.457</ele>
        <time>2020-06-12T18:20:26.001Z</time>
      </trkpt>
      <trkpt lat="50.45499" lon="1.61361">
        <ele>13.07</ele>
        <time>2020-06-12T18:20:29.001Z</time>
      </trkpt>
      <trkpt lat="50.45521" lon="1.61354">
        <ele>12.712</ele>
        <time>2020-06-12T18:20:32.001Z</time>
      </trkpt>
      <trkpt lat="50.45542" lon="1.6135">
        <ele>11.317</ele>
        <time>2020-06-12T18:20:35.001Z</time>
      </trkpt>
      <trkpt lat="50.45561" lon="1.61347">
        <ele>11.247</ele>
        <time>2020-06-12T18:20:38.001Z</time>
      </trkpt>
      <trkpt lat="50.4558" lon="1.61349">
        <ele>10.875</ele>
        <time>2020-06-12T18:20:41.001Z</time>
      </trkpt>
      <trkpt lat="50.45595" lon="1.61344">
        <ele>10.501</ele>
        <time>2020-06-12T18:20:44.001Z</time>
      </trkpt>
      <trkpt lat="50.45591" lon="1.6132">
        <ele>9.489</ele>
        <time>2020-06-12T18:20:47.001Z</time>
      </trkpt>
      <trkpt lat="50.4558" lon="1.61295">
        <ele>9.539</ele>
        <time>2020-06-12T18:20:50.001Z</time>
      </trkpt>
      <trkpt lat="50.45572" lon="1.61268">
        <ele>9.818</ele>
        <time>2020-06-12T18:20:53.001Z</time>
      </trkpt>
      <trkpt lat="50.45567" lon="1.61238">
        <ele>9.71</ele>
        <time>2020-06-12T18:20:56.001Z</time>
      </trkpt>
      <trkpt lat="50.45562" lon="1.6121">
        <ele>9.458</ele>
        <time>2020-06-12T18:20:59.001Z</time>
      </trkpt>
      <trkpt lat="50.45558" lon="1.61183">
        <ele>9.618</ele>
        <time>2020-06-12T18:21:02Z</time>
      </trkpt>
      <trkpt lat="50.45558" lon="1.61154">
        <ele>9.321</ele>
        <time>2020-06-12T18:21:05.001Z</time>
      </trkpt>
      <trkpt lat="50.45564" lon="1.61126">
        <ele>8.964</ele>
        <time>2020-06-12T18:21:08.001Z</time>
      </trkpt>
      <trkpt lat="50.45571" lon="1.61098">
        <ele>9.083</ele>
        <time>2020-06-12T18:21:11.001Z</time>
      </trkpt>
      <trkpt lat="50.45578" lon="1.61072">
        <ele>9.476</ele>
        <time>2020-06-12T18:21:14.001Z</time>
      </trkpt>
      <trkpt lat="50.45586" lon="1.61048">
        <ele>9.825</ele>
        <time>2020-06-12T18:21:17.001Z</time>
      </trkpt>
      <trkpt lat="50.45589" lon="1.61019">
        <ele>9.735</ele>
        <time>2020-06-12T18:21:20.001Z</time>
      </trkpt>
      <trkpt lat="50.45588" lon="1.60991">
        <ele>9.209</ele>
        <time>2020-06-12T18:21:23.001Z</time>
      </trkpt>
      <trkpt lat="50.45587" lon="1.60962">
        <ele>8.78</ele>
        <time>2020-06-12T18:21:26.001Z</time>
      </trkpt>
      <trkpt lat="50.45586" lon="1.60934">
        <ele>8.442</ele>
        <time>2020-06-12T18:21:29.001Z</time>
      </trkpt>
      <trkpt lat="50.45586" lon="1.60906">
        <ele>8.296</ele>
        <time>2020-06-12T18:21:32.001Z</time>
      </trkpt>
      <trkpt lat="50.45585" lon="1.60878">
        <ele>8.454</ele>
        <time>2020-06-12T18:21:35.001Z</time>
      </trkpt>
      <trkpt lat="50.45585" lon="1.60852">
        <ele>8.885</ele>
        <time>2020-06-12T18:21:38.001Z</time>
      </trkpt>
      <trkpt lat="50.45584" lon="1.60826">
        <ele>9.006</ele>
        <time>2020-06-12T18:21:41.001Z</time>
      </trkpt>
      <trkpt lat="50.45582" lon="1.608">
        <ele>9.165</ele>
        <time>2020-06-12T18:21:44.001Z</time>
      </trkpt>
      <trkpt lat="50.45581" lon="1.60774">
        <ele>9.227</ele>
        <time>2020-06-12T18:21:47.001Z</time>
      </trkpt>
      <trkpt lat="50.45581" lon="1.60747">
        <ele>9.603</ele>
        <time>2020-06-12T18:21:50.001Z</time>
      </trkpt>
      <trkpt lat="50.45581" lon="1.6072">
        <ele>9.551</ele>
        <time>2020-06-12T18:21:53.001Z</time>
      </trkpt>
      <trkpt lat="50.45583" lon="1.60691">
        <ele>9.97</ele>
        <time>2020-06-12T18:21:56.001Z</time>
      </trkpt>
      <trkpt lat="50.45591" lon="1.60666">
        <ele>10.055</ele>
        <time>2020-06-12T18:21:59.001Z</time>
      </trkpt>
      <trkpt lat="50.45601" lon="1.60646">
        <ele>10.869</ele>
        <time>2020-06-12T18:22:02Z</time>
      </trkpt>
      <trkpt lat="50.45613" lon="1.60624">
        <ele>11.727</ele>
        <time>2020-06-12T18:22:05.001Z</time>
      </trkpt>
      <trkpt lat="50.45624" lon="1.60602">
        <ele>13.09</ele>
        <time>2020-06-12T18:22:08.001Z</time>
      </trkpt>
      <trkpt lat="50.45636" lon="1.60582">
        <ele>13.47</ele>
        <time>2020-06-12T18:22:11.001Z</time>
      </trkpt>
      <trkpt lat="50.45648" lon="1.60561">
        <ele>13.712</ele>
        <time>2020-06-12T18:22:14.001Z</time>
      </trkpt>
      <trkpt lat="50.45661" lon="1.60538">
        <ele>14.289</ele>
        <time>2020-06-12T18:22:17.001Z</time>
      </trkpt>
      <trkpt lat="50.45673" lon="1.60514">
        <ele>14.6</ele>
        <time>2020-06-12T18:22:20.001Z</time>
      </trkpt>
      <trkpt lat="50.45686" lon="1.6049">
        <ele>14.403</ele>
        <time>2020-06-12T18:22:23.001Z</time>
      </trkpt>
      <trkpt lat="50.45699" lon="1.60466">
        <ele>14.388</ele>
        <time>2020-06-12T18:22:26.001Z</time>
      </trkpt>
      <trkpt lat="50.45711" lon="1.6044">
        <ele>14.334</ele>
        <time>2020-06-12T18:22:29.001Z</time>
      </trkpt>
      <trkpt lat="50.45725" lon="1.60415">
        <ele>14.081</ele>
        <time>2020-06-12T18:22:32.001Z</time>
      </trkpt>
      <trkpt lat="50.45738" lon="1.60391">
        <ele>14.074</ele>
        <time>2020-06-12T18:22:35.001Z</time>
      </trkpt>
      <trkpt lat="50.45752" lon="1.60366">
        <ele>13.88</ele>
        <time>2020-06-12T18:22:38.001Z</time>
      </trkpt>
      <trkpt lat="50.45764" lon="1.6034">
        <ele>14.591</ele>
        <time>2020-06-12T18:22:41.001Z</time>
      </trkpt>
      <trkpt lat="50.45777" lon="1.60314">
        <ele>14.487</ele>
        <time>2020-06-12T18:22:44.001Z</time>
      </trkpt>
      <trkpt lat="50.4579" lon="1.60289">
        <ele>13.985</ele>
        <time>2020-06-12T18:22:47.001Z</time>
      </trkpt>
      <trkpt lat="50.45804" lon="1.60265">
        <ele>13.008</ele>
        <time>2020-06-12T18:22:50.001Z</time>
      </trkpt>
      <trkpt lat="50.45815" lon="1.60239">
        <ele>11.911</ele>
        <time>2020-06-12T18:22:53.001Z</time>
      </trkpt>
      <trkpt lat="50.45824" lon="1.60208">
        <ele>11.41</ele>
        <time>2020-06-12T18:22:56.001Z</time>
      </trkpt>
      <trkpt lat="50.45829" lon="1.60177">
        <ele>11.142</ele>
        <time>2020-06-12T18:22:59.001Z</time>
      </trkpt>
      <trkpt lat="50.45834" lon="1.60146">
        <ele>10.295</ele>
        <time>2020-06-12T18:23:02Z</time>
      </trkpt>
      <trkpt lat="50.45839" lon="1.60113">
        <ele>9.859</ele>
        <time>2020-06-12T18:23:05.001Z</time>
      </trkpt>
      <trkpt lat="50.45843" lon="1.6008">
        <ele>10.153</ele>
        <time>2020-06-12T18:23:08.001Z</time>
      </trkpt>
      <trkpt lat="50.45848" lon="1.60048">
        <ele>9.84</ele>
        <time>2020-06-12T18:23:11.001Z</time>
      </trkpt>
      <trkpt lat="50.45855" lon="1.60017">
        <ele>9.658</ele>
        <time>2020-06-12T18:23:14.001Z</time>
      </trkpt>
      <trkpt lat="50.45861" lon="1.59986">
        <ele>10.009</ele>
        <time>2020-06-12T18:23:17.001Z</time>
      </trkpt>
      <trkpt lat="50.45867" lon="1.59957">
        <ele>10.215</ele>
        <time>2020-06-12T18:23:20.001Z</time>
      </trkpt>
      <trkpt lat="50.45873" lon="1.59927">
        <ele>10.027</ele>
        <time>2020-06-12T18:23:23.001Z</time>
      </trkpt>
      <trkpt lat="50.45877" lon="1.59893">
        <ele>9.523</ele>
        <time>2020-06-12T18:23:26.001Z</time>
      </trkpt>
      <trkpt lat="50.45883" lon="1.5986">
        <ele>9.632</ele>
        <time>2020-06-12T18:23:29.001Z</time>
      </trkpt>
      <trkpt lat="50.4589" lon="1.59827">
        <ele>9.764</ele>
        <time>2020-06-12T18:23:32.001Z</time>
      </trkpt>
      <trkpt lat="50.45895" lon="1.59794">
        <ele>9.823</ele>
        <time>2020-06-12T18:23:35.001Z</time>
      </trkpt>
      <trkpt lat="50.459" lon="1.59761">
        <ele>9.406</ele>
        <time>2020-06-12T18:23:38.001Z</time>
      </trkpt>
      <trkpt lat="50.45904" lon="1.59728">
        <ele>8.96</ele>
        <time>2020-06-12T18:23:41.001Z</time>
      </trkpt>
      <trkpt lat="50.45908" lon="1.59694">
        <ele>9.262</ele>
        <time>2020-06-12T18:23:44.001Z</time>
      </trkpt>
      <trkpt lat="50.45913" lon="1.59662">
        <ele>8.986</ele>
        <time>2020-06-12T18:23:47.001Z</time>
      </trkpt>
      <trkpt lat="50.45917" lon="1.59625">
        <ele>8.816</ele>
        <time>2020-06-12T18:23:50.001Z</time>
      </trkpt>
      <trkpt lat="50.45922" lon="1.59591">
        <ele>8.761</ele>
        <time>2020-06-12T18:23:53.001Z</time>
      </trkpt>
      <trkpt lat="50.45927" lon="1.59558">
        <ele>9.273</ele>
        <time>2020-06-12T18:23:56.001Z</time>
      </trkpt>
      <trkpt lat="50.45933" lon="1.59523">
        <ele>10.821</ele>
        <time>2020-06-12T18:23:59.001Z</time>
      </trkpt>
      <trkpt lat="50.45938" lon="1.59488">
        <ele>12.209</ele>
        <time>2020-06-12T18:24:02Z</time>
      </trkpt>
      <trkpt lat="50.45942" lon="1.59454">
        <ele>12.559</ele>
        <time>2020-06-12T18:24:05.001Z</time>
      </trkpt>
      <trkpt lat="50.45948" lon="1.59418">
        <ele>11.986</ele>
        <time>2020-06-12T18:24:08.001Z</time>
      </trkpt>
      <trkpt lat="50.45954" lon="1.59384">
        <ele>11.157</ele>
        <time>2020-06-12T18:24:11.001Z</time>
      </trkpt>
      <trkpt lat="50.4596" lon="1.5935">
        <ele>10.63</ele>
        <time>2020-06-12T18:24:14.001Z</time>
      </trkpt>
      <trkpt lat="50.45965" lon="1.59314">
        <ele>10.222</ele>
        <time>2020-06-12T18:24:17.001Z</time>
      </trkpt>
      <trkpt lat="50.45971" lon="1.5928">
        <ele>10.255</ele>
        <time>2020-06-12T18:24:20.001Z</time>
      </trkpt>
      <trkpt lat="50.45978" lon="1.59244">
        <ele>10.59</ele>
        <time>2020-06-12T18:24:23.001Z</time>
      </trkpt>
      <trkpt lat="50.45984" lon="1.59208">
        <ele>10.521</ele>
        <time>2020-06-12T18:24:26.001Z</time>
      </trkpt>
      <trkpt lat="50.45989" lon="1.59169">
        <ele>10.599</ele>
        <time>2020-06-12T18:24:29.001Z</time>
      </trkpt>
      <trkpt lat="50.45995" lon="1.59129">
        <ele>11.11</ele>
        <time>2020-06-12T18:24:32.001Z</time>
      </trkpt>
      <trkpt lat="50.46001" lon="1.5909">
        <ele>10.98</ele>
        <time>2020-06-12T18:24:35.001Z</time>
      </trkpt>
      <trkpt lat="50.46007" lon="1.5905">
        <ele>10.434</ele>
        <time>2020-06-12T18:24:38.001Z</time>
      </trkpt>
      <trkpt lat="50.46013" lon="1.5901">
        <ele>10.3</ele>
        <time>2020-06-12T18:24:41.001Z</time>
      </trkpt>
      <trkpt lat="50.4602" lon="1.58971">
        <ele>10.231</ele>
        <time>2020-06-12T18:24:44.001Z</time>
      </trkpt>
      <trkpt lat="50.46026" lon="1.58931">
        <ele>10.56</ele>
        <time>2020-06-12T18:24:47.001Z</time>
      </trkpt>
      <trkpt lat="50.46033" lon="1.58889">
        <ele>10.923</ele>
        <time>2020-06-12T18:24:50.001Z</time>
      </trkpt>
      <trkpt lat="50.46039" lon="1.58849">
        <ele>10.825</ele>
        <time>2020-06-12T18:24:53.001Z</time>
      </trkpt>
      <trkpt lat="50.46045" lon="1.5881">
        <ele>10.654</ele>
        <time>2020-06-12T18:24:56.001Z</time>
      </trkpt>
      <trkpt lat="50.46051" lon="1.5877">
        <ele>10.456</ele>
        <time>2020-06-12T18:24:59.001Z</time>
      </trkpt>
      <trkpt lat="50.46057" lon="1.58733">
        <ele>10.177</ele>
        <time>2020-06-12T18:25:02Z</time>
      </trkpt>
      <trkpt lat="50.46063" lon="1.58695">
        <ele>9.992</ele>
        <time>2020-06-12T18:25:05.001Z</time>
      </trkpt>
      <trkpt lat="50.4607" lon="1.58657">
        <ele>9.991</ele>
        <time>2020-06-12T18:25:08.001Z</time>
      </trkpt>
      <trkpt lat="50.46075" lon="1.58619">
        <ele>10.291</ele>
        <time>2020-06-12T18:25:11.001Z</time>
      </trkpt>
      <trkpt lat="50.46081" lon="1.58582">
        <ele>10.092</ele>
        <time>2020-06-12T18:25:14.001Z</time>
      </trkpt>
      <trkpt lat="50.46087" lon="1.58545">
        <ele>10.1</ele>
        <time>2020-06-12T18:25:17.001Z</time>
      </trkpt>
      <trkpt lat="50.46094" lon="1.58506">
        <ele>10.161</ele>
        <time>2020-06-12T18:25:20.001Z</time>
      </trkpt>
      <trkpt lat="50.46099" lon="1.58467">
        <ele>10.362</ele>
        <time>2020-06-12T18:25:23.001Z</time>
      </trkpt>
      <trkpt lat="50.46105" lon="1.58429">
        <ele>10.543</ele>
        <time>2020-06-12T18:25:26.001Z</time>
      </trkpt>
      <trkpt lat="50.46111" lon="1.58391">
        <ele>10.814</ele>
        <time>2020-06-12T18:25:29.001Z</time>
      </trkpt>
      <trkpt lat="50.46117" lon="1.58352">
        <ele>11.008</ele>
        <time>2020-06-12T18:25:32.001Z</time>
      </trkpt>
      <trkpt lat="50.46124" lon="1.58313">
        <ele>11.029</ele>
        <time>2020-06-12T18:25:35.001Z</time>
      </trkpt>
      <trkpt lat="50.4613" lon="1.58274">
        <ele>11.053</ele>
        <time>2020-06-12T18:25:38.001Z</time>
      </trkpt>
      <trkpt lat="50.46136" lon="1.58236">
        <ele>10.892</ele>
        <time>2020-06-12T18:25:41.001Z</time>
      </trkpt>
      <trkpt lat="50.46142" lon="1.58198">
        <ele>10.91</ele>
        <time>2020-06-12T18:25:44.001Z</time>
      </trkpt>
      <trkpt lat="50.46147" lon="1.5816">
        <ele>11.243</ele>
        <time>2020-06-12T18:25:47.001Z</time>
      </trkpt>
      <trkpt lat="50.46153" lon="1.58122">
        <ele>11.216</ele>
        <time>2020-06-12T18:25:50.001Z</time>
      </trkpt>
      <trkpt lat="50.46159" lon="1.58088">
        <ele>11.888</ele>
        <time>2020-06-12T18:25:53.001Z</time>
      </trkpt>
      <trkpt lat="50.46164" lon="1.58056">
        <ele>12.097</ele>
        <time>2020-06-12T18:25:56.001Z</time>
      </trkpt>
      <trkpt lat="50.46169" lon="1.58026">
        <ele>12.381</ele>
        <time>2020-06-12T18:25:59.001Z</time>
      </trkpt>
      <trkpt lat="50.46173" lon="1.57997">
        <ele>12.678</ele>
        <time>2020-06-12T18:26:02Z</time>
      </trkpt>
      <trkpt lat="50.46179" lon="1.57968">
        <ele>12.656</ele>
        <time>2020-06-12T18:26:05.001Z</time>
      </trkpt>
      <trkpt lat="50.46197" lon="1.57952">
        <ele>13.037</ele>
        <time>2020-06-12T18:26:08.001Z</time>
      </trkpt>
      <trkpt lat="50.46216" lon="1.5794">
        <ele>13.415</ele>
        <time>2020-06-12T18:26:11.001Z</time>
      </trkpt>
      <trkpt lat="50.46234" lon="1.5793">
        <ele>14.135</ele>
        <time>2020-06-12T18:26:14.001Z</time>
      </trkpt>
      <trkpt lat="50.46252" lon="1.57918">
        <ele>14.462</ele>
        <time>2020-06-12T18:26:17.001Z</time>
      </trkpt>
      <trkpt lat="50.4627" lon="1.57905">
        <ele>14.151</ele>
        <time>2020-06-12T18:26:20.001Z</time>
      </trkpt>
      <trkpt lat="50.46289" lon="1.57892">
        <ele>14.001</ele>
        <time>2020-06-12T18:26:23.001Z</time>
      </trkpt>
      <trkpt lat="50.46308" lon="1.57879">
        <ele>13.896</ele>
        <time>2020-06-12T18:26:26.001Z</time>
      </trkpt>
      <trkpt lat="50.46329" lon="1.57866">
        <ele>13.227</ele>
        <time>2020-06-12T18:26:29.001Z</time>
      </trkpt>
      <trkpt lat="50.4635" lon="1.57854">
        <ele>13.446</ele>
        <time>2020-06-12T18:26:32.001Z</time>
      </trkpt>
      <trkpt lat="50.46371" lon="1.57843">
        <ele>14.671</ele>
        <time>2020-06-12T18:26:35.001Z</time>
      </trkpt>
      <trkpt lat="50.46393" lon="1.5783">
        <ele>15.428</ele>
        <time>2020-06-12T18:26:38.001Z</time>
      </trkpt>
      <trkpt lat="50.46414" lon="1.57816">
        <ele>15.973</ele>
        <time>2020-06-12T18:26:41.001Z</time>
      </trkpt>
      <trkpt lat="50.46435" lon="1.57803">
        <ele>15.908</ele>
        <time>2020-06-12T18:26:44.001Z</time>
      </trkpt>
      <trkpt lat="50.46454" lon="1.5779">
        <ele>15.46</ele>
        <time>2020-06-12T18:26:47.001Z</time>
      </trkpt>
      <trkpt lat="50.46471" lon="1.5778">
        <ele>15.411</ele>
        <time>2020-06-12T18:26:50.001Z</time>
      </trkpt>
      <trkpt lat="50.46484" lon="1.5777">
        <ele>14.636</ele>
        <time>2020-06-12T18:26:53.001Z</time>
      </trkpt>
      <trkpt lat="50.46494" lon="1.57764">
        <ele>14.689</ele>
        <time>2020-06-12T18:26:56.001Z</time>
      </trkpt>
      <trkpt lat="50.46496" lon="1.57761">
        <ele>15.131</ele>
        <time>2020-06-12T18:26:59.001Z</time>
      </trkpt>
    </trkseg>
  </trk>
</gpx>